<?xml version="1.0" encoding="UTF-8"?>
<gpx version="1.1" creator="2bulu-scraper" xmlns="http://www.topografix.com/GPX/1/1">
  <metadata><name>泸州合江 龙挂山-法王寺</name><desc>source: 2bulu.com trackId=81684842; exported 2026-09-01T14:49:58.666Z</desc>
    <bounds minlat="28.6565678" minlon="105.6470169" maxlat="28.6760631" maxlon="105.6700936"/>
    <link href="https://www.2bulu.com/track/t-NOCmWPYGOy%252Fp%252FR2KBg5Tzw%253D%253D.htm"><text>2bulu 源页面</text></link>
  </metadata>
  <wpt lat="28.6747785" lon="105.667668"><ele>268</ele><name>
        
        
        </name></wpt>
  <wpt lat="28.6747694" lon="105.6606573"><ele>369</ele><name>
        
        
        </name></wpt>
  <wpt lat="28.6744592" lon="105.6603774"><ele>375</ele><name>
        
        
        </name></wpt>
  <wpt lat="28.675315" lon="105.6559772"><ele>452</ele><name>
        
        
        </name></wpt>
  <wpt lat="28.6714559" lon="105.6523763"><ele>507</ele><name>
        
        
        </name></wpt>
  <wpt lat="28.6688164" lon="105.6492261"><ele>541</ele><name>
        
        
        </name></wpt>
  <wpt lat="28.6673827" lon="105.6507778"><ele>733</ele><name>
        
        
        </name></wpt>
  <wpt lat="28.6673507" lon="105.6507265"><ele>733</ele><name>
        
        
        </name></wpt>
  <wpt lat="28.6673141" lon="105.6506639"><ele>733</ele><name>
        
        
        </name></wpt>
  <wpt lat="28.6657204" lon="105.6521217"><ele>734</ele><name>
        
        
        </name></wpt>
  <wpt lat="28.6667084" lon="105.6543899"><ele>745</ele><name>
        
        
        </name></wpt>
  <wpt lat="28.6661902" lon="105.6560233"><ele>767</ele><name>
        
        
        </name></wpt>
  <wpt lat="28.6642779" lon="105.657235"><ele>747</ele><name>
        
        
        </name></wpt>
  <wpt lat="28.6640208" lon="105.6570478"><ele>748</ele><name>
        
        
        </name></wpt>
  <wpt lat="28.6632368" lon="105.6563599"><ele>731</ele><name>
        
        
        </name></wpt>
  <wpt lat="28.6630184" lon="105.6559729"><ele>724</ele><name>
        
        
        </name></wpt>
  <wpt lat="28.6630184" lon="105.6559729"><ele>724</ele><name>
        
        
        </name></wpt>
  <wpt lat="28.6566487" lon="105.6546972"><ele>593</ele><name>
        
        
        </name></wpt>
  <wpt lat="28.6567198" lon="105.6551251"><ele>588</ele><name>
        
        
        </name></wpt>
  <wpt lat="28.6569407" lon="105.6551798"><ele>593</ele><name>
        
        
        </name></wpt>
  <wpt lat="28.6566838" lon="105.6548776"><ele>598</ele><name>
        
        
        </name></wpt>
  <wpt lat="28.6567371" lon="105.6546514"><ele>595</ele><name>
        
        
        </name></wpt>
  <wpt lat="28.6574867" lon="105.6549946"><ele>613</ele><name>
        
        
        </name></wpt>
  <wpt lat="28.6577411" lon="105.6549701"><ele>616</ele><name>
        
        
        </name></wpt>
  <wpt lat="28.6577411" lon="105.6549701"><ele>616</ele><name>
        
        
        </name></wpt>
  <wpt lat="28.6581298" lon="105.655218"><ele>620</ele><name>
        
        
        </name></wpt>
  <wpt lat="28.6582204" lon="105.6552358"><ele>626</ele><name>
        
        
        </name></wpt>
  <wpt lat="28.6582204" lon="105.6552358"><ele>626</ele><name>
        
        
        </name></wpt>
  <wpt lat="28.6584433" lon="105.6551617"><ele>621</ele><name>
        
        
        </name></wpt>
  <wpt lat="28.6630546" lon="105.6563064"><ele>720</ele><name>
        
        
        </name></wpt>
  <wpt lat="28.6634484" lon="105.6562613"><ele>719</ele><name>
        
        
        </name></wpt>
  <wpt lat="28.6638617" lon="105.6561817"><ele>730</ele><name>
        
        
        </name></wpt>
  <wpt lat="28.6647108" lon="105.6562554"><ele>738</ele><name>
        
        
        </name></wpt>
  <wpt lat="28.6645585" lon="105.655851"><ele>744</ele><name>
        
        
        </name></wpt>
  <wpt lat="28.6645585" lon="105.655851"><ele>744</ele><name>
        
        
        </name></wpt>
  <wpt lat="28.6658883" lon="105.6519739"><ele>721</ele><name>
        
        
        </name></wpt>
  <wpt lat="28.6679777" lon="105.6491488"><ele>633</ele><name>
        
        
        </name></wpt>
  <wpt lat="28.6714437" lon="105.6522248"><ele>505</ele><name>
        
        
        </name></wpt>
  <wpt lat="28.6757348" lon="105.6697224"><ele>273</ele><name>
        
        
        </name></wpt>
  <wpt lat="28.6759973" lon="105.6700431"><ele>269</ele><name>
        
        
        </name></wpt>
  <trk><name>泸州合江 龙挂山-法王寺</name>
      <trkseg>
        <trkpt lat="28.6751754" lon="105.6687912"><ele>269.5</ele><time>2026-04-04T18:12:22.000Z</time></trkpt>
        <trkpt lat="28.6751709" lon="105.6687027"><ele>269.5</ele><time>2026-04-04T18:12:30.000Z</time></trkpt>
        <trkpt lat="28.675168" lon="105.6685867"><ele>270.1</ele><time>2026-04-04T18:12:40.000Z</time></trkpt>
        <trkpt lat="28.67516" lon="105.6684762"><ele>270.36</ele><time>2026-04-04T18:12:50.000Z</time></trkpt>
        <trkpt lat="28.6751418" lon="105.668357"><ele>269.9</ele><time>2026-04-04T18:13:00.000Z</time></trkpt>
        <trkpt lat="28.6751004" lon="105.6682516"><ele>269.73</ele><time>2026-04-04T18:13:08.000Z</time></trkpt>
        <trkpt lat="28.6750489" lon="105.6681483"><ele>269.42</ele><time>2026-04-04T18:13:16.000Z</time></trkpt>
        <trkpt lat="28.6749866" lon="105.6680581"><ele>269.5</ele><time>2026-04-04T18:13:24.000Z</time></trkpt>
        <trkpt lat="28.6749482" lon="105.6679637"><ele>269.2</ele><time>2026-04-04T18:13:32.000Z</time></trkpt>
        <trkpt lat="28.674896" lon="105.667858"><ele>268.38</ele><time>2026-04-04T18:13:40.000Z</time></trkpt>
        <trkpt lat="28.674837" lon="105.6677543"><ele>267.57</ele><time>2026-04-04T18:13:50.000Z</time></trkpt>
        <trkpt lat="28.6747785" lon="105.667668"><ele>267.37</ele><time>2026-04-04T18:14:00.000Z</time></trkpt>
        <trkpt lat="28.6747746" lon="105.6675571"><ele>267.43</ele><time>2026-04-04T18:14:12.000Z</time></trkpt>
        <trkpt lat="28.6747959" lon="105.6674512"><ele>267.59</ele><time>2026-04-04T18:14:20.000Z</time></trkpt>
        <trkpt lat="28.6748274" lon="105.6673355"><ele>268.07</ele><time>2026-04-04T18:14:28.000Z</time></trkpt>
        <trkpt lat="28.6748559" lon="105.6672203"><ele>267.74</ele><time>2026-04-04T18:14:38.000Z</time></trkpt>
        <trkpt lat="28.6748801" lon="105.6671033"><ele>266.9</ele><time>2026-04-04T18:14:46.000Z</time></trkpt>
        <trkpt lat="28.6748954" lon="105.6669834"><ele>266.26</ele><time>2026-04-04T18:14:56.000Z</time></trkpt>
        <trkpt lat="28.674916" lon="105.6668616"><ele>265.59</ele><time>2026-04-04T18:15:06.000Z</time></trkpt>
        <trkpt lat="28.6749364" lon="105.6667506"><ele>265.59</ele><time>2026-04-04T18:15:16.000Z</time></trkpt>
        <trkpt lat="28.6749629" lon="105.6666426"><ele>265.51</ele><time>2026-04-04T18:15:28.000Z</time></trkpt>
        <trkpt lat="28.6749614" lon="105.6665552"><ele>265.81</ele><time>2026-04-04T18:15:44.000Z</time></trkpt>
        <trkpt lat="28.6749069" lon="105.6664712"><ele>266.41</ele><time>2026-04-04T18:15:56.000Z</time></trkpt>
        <trkpt lat="28.674833" lon="105.6663796"><ele>266.49</ele><time>2026-04-04T18:16:04.000Z</time></trkpt>
        <trkpt lat="28.6747507" lon="105.6662994"><ele>266.41</ele><time>2026-04-04T18:16:12.000Z</time></trkpt>
        <trkpt lat="28.674682" lon="105.6662157"><ele>266.23</ele><time>2026-04-04T18:16:22.000Z</time></trkpt>
        <trkpt lat="28.674673" lon="105.6661176"><ele>266</ele><time>2026-04-04T18:16:36.000Z</time></trkpt>
        <trkpt lat="28.6747099" lon="105.6660203"><ele>267.03</ele><time>2026-04-04T18:16:56.000Z</time></trkpt>
        <trkpt lat="28.6747229" lon="105.6659115"><ele>268.96</ele><time>2026-04-04T18:17:08.000Z</time></trkpt>
        <trkpt lat="28.6746993" lon="105.6658064"><ele>270.74</ele><time>2026-04-04T18:17:18.000Z</time></trkpt>
        <trkpt lat="28.67465" lon="105.6657046"><ele>271.54</ele><time>2026-04-04T18:17:28.000Z</time></trkpt>
        <trkpt lat="28.6745905" lon="105.6656093"><ele>272.17</ele><time>2026-04-04T18:17:38.000Z</time></trkpt>
        <trkpt lat="28.6745783" lon="105.6655076"><ele>273.13</ele><time>2026-04-04T18:17:48.000Z</time></trkpt>
        <trkpt lat="28.6746151" lon="105.6654106"><ele>274.06</ele><time>2026-04-04T18:17:58.000Z</time></trkpt>
        <trkpt lat="28.6746782" lon="105.6653305"><ele>274.94</ele><time>2026-04-04T18:18:06.000Z</time></trkpt>
        <trkpt lat="28.674721" lon="105.6652238"><ele>275.35</ele><time>2026-04-04T18:18:16.000Z</time></trkpt>
        <trkpt lat="28.6747268" lon="105.6651177"><ele>276.28</ele><time>2026-04-04T18:18:28.000Z</time></trkpt>
        <trkpt lat="28.674741" lon="105.6650065"><ele>277.83</ele><time>2026-04-04T18:18:42.000Z</time></trkpt>
        <trkpt lat="28.6747423" lon="105.6648913"><ele>279.93</ele><time>2026-04-04T18:18:56.000Z</time></trkpt>
        <trkpt lat="28.6747707" lon="105.6647902"><ele>282.45</ele><time>2026-04-04T18:19:12.000Z</time></trkpt>
        <trkpt lat="28.6747899" lon="105.6646873"><ele>285.01</ele><time>2026-04-04T18:19:26.000Z</time></trkpt>
        <trkpt lat="28.6748072" lon="105.6645832"><ele>287.67</ele><time>2026-04-04T18:19:38.000Z</time></trkpt>
        <trkpt lat="28.6748151" lon="105.6644709"><ele>290.44</ele><time>2026-04-04T18:19:48.000Z</time></trkpt>
        <trkpt lat="28.6747883" lon="105.6643582"><ele>292.7</ele><time>2026-04-04T18:20:10.000Z</time></trkpt>
        <trkpt lat="28.6747256" lon="105.6642783"><ele>294.42</ele><time>2026-04-04T18:20:30.000Z</time></trkpt>
        <trkpt lat="28.6747522" lon="105.6641994"><ele>295.36</ele><time>2026-04-04T18:20:40.000Z</time></trkpt>
        <trkpt lat="28.6747744" lon="105.6640941"><ele>296.06</ele><time>2026-04-04T18:20:52.000Z</time></trkpt>
        <trkpt lat="28.6748019" lon="105.6639807"><ele>297.07</ele><time>2026-04-04T18:21:04.000Z</time></trkpt>
        <trkpt lat="28.6748385" lon="105.6638791"><ele>298.85</ele><time>2026-04-04T18:21:16.000Z</time></trkpt>
        <trkpt lat="28.67487" lon="105.6637803"><ele>301.15</ele><time>2026-04-04T18:21:40.000Z</time></trkpt>
        <trkpt lat="28.6749297" lon="105.6636923"><ele>304.61</ele><time>2026-04-04T18:21:52.000Z</time></trkpt>
        <trkpt lat="28.6749933" lon="105.6636019"><ele>307.62</ele><time>2026-04-04T18:22:06.000Z</time></trkpt>
        <trkpt lat="28.6750528" lon="105.6635123"><ele>310.41</ele><time>2026-04-04T18:22:18.000Z</time></trkpt>
        <trkpt lat="28.6750859" lon="105.6634065"><ele>312.3</ele><time>2026-04-04T18:22:32.000Z</time></trkpt>
        <trkpt lat="28.6751102" lon="105.6632996"><ele>314.41</ele><time>2026-04-04T18:22:44.000Z</time></trkpt>
        <trkpt lat="28.6751452" lon="105.6631893"><ele>316.81</ele><time>2026-04-04T18:22:58.000Z</time></trkpt>
        <trkpt lat="28.6751889" lon="105.6630808"><ele>319.17</ele><time>2026-04-04T18:23:10.000Z</time></trkpt>
        <trkpt lat="28.6752571" lon="105.6629985"><ele>321.08</ele><time>2026-04-04T18:23:20.000Z</time></trkpt>
        <trkpt lat="28.675345" lon="105.6629383"><ele>322.29</ele><time>2026-04-04T18:23:34.000Z</time></trkpt>
        <trkpt lat="28.6754474" lon="105.6629049"><ele>323.28</ele><time>2026-04-04T18:23:46.000Z</time></trkpt>
        <trkpt lat="28.6755518" lon="105.6628919"><ele>324.41</ele><time>2026-04-04T18:24:00.000Z</time></trkpt>
        <trkpt lat="28.6756515" lon="105.6628864"><ele>325.78</ele><time>2026-04-04T18:24:12.000Z</time></trkpt>
        <trkpt lat="28.6757395" lon="105.6628335"><ele>326.74</ele><time>2026-04-04T18:25:02.000Z</time></trkpt>
        <trkpt lat="28.6757692" lon="105.6627379"><ele>327.97</ele><time>2026-04-04T18:25:22.000Z</time></trkpt>
        <trkpt lat="28.675808" lon="105.6626421"><ele>328.07</ele><time>2026-04-04T18:25:30.000Z</time></trkpt>
        <trkpt lat="28.6758462" lon="105.662542"><ele>328.25</ele><time>2026-04-04T18:25:38.000Z</time></trkpt>
        <trkpt lat="28.6758866" lon="105.6624357"><ele>328.62</ele><time>2026-04-04T18:25:50.000Z</time></trkpt>
        <trkpt lat="28.6758748" lon="105.6623171"><ele>329.69</ele><time>2026-04-04T18:26:02.000Z</time></trkpt>
        <trkpt lat="28.6758454" lon="105.6622087"><ele>330.94</ele><time>2026-04-04T18:26:20.000Z</time></trkpt>
        <trkpt lat="28.6757989" lon="105.6621115"><ele>332.13</ele><time>2026-04-04T18:26:30.000Z</time></trkpt>
        <trkpt lat="28.6757536" lon="105.6620172"><ele>332.63</ele><time>2026-04-04T18:26:40.000Z</time></trkpt>
        <trkpt lat="28.6756998" lon="105.6619146"><ele>332.79</ele><time>2026-04-04T18:26:52.000Z</time></trkpt>
        <trkpt lat="28.6756391" lon="105.6618273"><ele>333.65</ele><time>2026-04-04T18:27:02.000Z</time></trkpt>
        <trkpt lat="28.6755567" lon="105.66175"><ele>334.49</ele><time>2026-04-04T18:28:53.000Z</time></trkpt>
        <trkpt lat="28.6755" lon="105.6616633"><ele>340</ele><time>2026-04-04T18:29:09.000Z</time></trkpt>
        <trkpt lat="28.6754292" lon="105.6615922"><ele>344.13</ele><time>2026-04-04T18:29:27.000Z</time></trkpt>
        <trkpt lat="28.675356" lon="105.6615289"><ele>347.21</ele><time>2026-04-04T18:29:41.000Z</time></trkpt>
        <trkpt lat="28.6752818" lon="105.6614695"><ele>350.05</ele><time>2026-04-04T18:29:51.000Z</time></trkpt>
        <trkpt lat="28.6752077" lon="105.6614097"><ele>352.05</ele><time>2026-04-04T18:30:05.000Z</time></trkpt>
        <trkpt lat="28.6751563" lon="105.6613254"><ele>353.58</ele><time>2026-04-04T18:30:49.000Z</time></trkpt>
        <trkpt lat="28.6751097" lon="105.6612268"><ele>354.19</ele><time>2026-04-04T18:31:01.000Z</time></trkpt>
        <trkpt lat="28.6750537" lon="105.6611242"><ele>356.17</ele><time>2026-04-04T18:31:13.000Z</time></trkpt>
        <trkpt lat="28.6749983" lon="105.661029"><ele>358.16</ele><time>2026-04-04T18:31:25.000Z</time></trkpt>
        <trkpt lat="28.6749457" lon="105.6609337"><ele>359.68</ele><time>2026-04-04T18:31:39.000Z</time></trkpt>
        <trkpt lat="28.6748891" lon="105.6608398"><ele>361.58</ele><time>2026-04-04T18:31:53.000Z</time></trkpt>
        <trkpt lat="28.6748297" lon="105.6607476"><ele>363.35</ele><time>2026-04-04T18:32:09.000Z</time></trkpt>
        <trkpt lat="28.6747694" lon="105.6606573"><ele>365.35</ele><time>2026-04-04T18:32:23.000Z</time></trkpt>
        <trkpt lat="28.6747002" lon="105.6605739"><ele>367.01</ele><time>2026-04-04T18:32:41.000Z</time></trkpt>
        <trkpt lat="28.6746166" lon="105.6605153"><ele>368.77</ele><time>2026-04-04T18:32:53.000Z</time></trkpt>
        <trkpt lat="28.6745309" lon="105.6604566"><ele>370.5</ele><time>2026-04-04T18:33:05.000Z</time></trkpt>
        <trkpt lat="28.6744592" lon="105.6603774"><ele>372.27</ele><time>2026-04-04T18:33:17.000Z</time></trkpt>
        <trkpt lat="28.6744285" lon="105.6602761"><ele>373.57</ele><time>2026-04-04T18:33:41.000Z</time></trkpt>
        <trkpt lat="28.6744587" lon="105.6601762"><ele>374.4</ele><time>2026-04-04T18:33:55.000Z</time></trkpt>
        <trkpt lat="28.6745449" lon="105.660131"><ele>375.56</ele><time>2026-04-04T18:34:05.000Z</time></trkpt>
        <trkpt lat="28.6746458" lon="105.6601303"><ele>376.74</ele><time>2026-04-04T18:34:19.000Z</time></trkpt>
        <trkpt lat="28.6747376" lon="105.6602009"><ele>377.75</ele><time>2026-04-04T18:34:31.000Z</time></trkpt>
        <trkpt lat="28.67482" lon="105.6602761"><ele>379.02</ele><time>2026-04-04T18:34:41.000Z</time></trkpt>
        <trkpt lat="28.6748962" lon="105.6603484"><ele>380.78</ele><time>2026-04-04T18:35:01.000Z</time></trkpt>
        <trkpt lat="28.6749917" lon="105.6603883"><ele>382.68</ele><time>2026-04-04T18:36:51.000Z</time></trkpt>
        <trkpt lat="28.6750883" lon="105.6603483"><ele>384.67</ele><time>2026-04-04T18:37:05.000Z</time></trkpt>
        <trkpt lat="28.6751512" lon="105.6602632"><ele>386.14</ele><time>2026-04-04T18:37:19.000Z</time></trkpt>
        <trkpt lat="28.6751797" lon="105.6601611"><ele>387.89</ele><time>2026-04-04T18:37:33.000Z</time></trkpt>
        <trkpt lat="28.6751697" lon="105.6600547"><ele>390.26</ele><time>2026-04-04T18:37:45.000Z</time></trkpt>
        <trkpt lat="28.6751486" lon="105.6599428"><ele>391.74</ele><time>2026-04-04T18:37:59.000Z</time></trkpt>
        <trkpt lat="28.675128" lon="105.6598352"><ele>393.62</ele><time>2026-04-04T18:38:11.000Z</time></trkpt>
        <trkpt lat="28.6751025" lon="105.6597326"><ele>395.54</ele><time>2026-04-04T18:38:23.000Z</time></trkpt>
        <trkpt lat="28.6750753" lon="105.6596285"><ele>397.72</ele><time>2026-04-04T18:38:35.000Z</time></trkpt>
        <trkpt lat="28.675071" lon="105.6595236"><ele>399.99</ele><time>2026-04-04T18:39:21.000Z</time></trkpt>
        <trkpt lat="28.6750682" lon="105.6594198"><ele>401.33</ele><time>2026-04-04T18:39:31.000Z</time></trkpt>
        <trkpt lat="28.675085" lon="105.6593177"><ele>402.22</ele><time>2026-04-04T18:39:53.000Z</time></trkpt>
        <trkpt lat="28.6750617" lon="105.65921"><ele>403.11</ele><time>2026-04-04T18:40:59.000Z</time></trkpt>
        <trkpt lat="28.6750483" lon="105.65909"><ele>404.66</ele><time>2026-04-04T18:41:13.000Z</time></trkpt>
        <trkpt lat="28.6750463" lon="105.6589756"><ele>406.57</ele><time>2026-04-04T18:41:25.000Z</time></trkpt>
        <trkpt lat="28.6750655" lon="105.6588597"><ele>408.82</ele><time>2026-04-04T18:41:41.000Z</time></trkpt>
        <trkpt lat="28.6751028" lon="105.6587596"><ele>411.18</ele><time>2026-04-04T18:41:55.000Z</time></trkpt>
        <trkpt lat="28.675137" lon="105.6586552"><ele>413.42</ele><time>2026-04-04T18:42:07.000Z</time></trkpt>
        <trkpt lat="28.6751884" lon="105.6585509"><ele>415.61</ele><time>2026-04-04T18:42:19.000Z</time></trkpt>
        <trkpt lat="28.6752317" lon="105.6584463"><ele>417.88</ele><time>2026-04-04T18:42:47.000Z</time></trkpt>
        <trkpt lat="28.6752831" lon="105.658344"><ele>418.36</ele><time>2026-04-04T18:42:57.000Z</time></trkpt>
        <trkpt lat="28.675356" lon="105.6582614"><ele>417.95</ele><time>2026-04-04T18:43:09.000Z</time></trkpt>
        <trkpt lat="28.6754374" lon="105.6581982"><ele>417.15</ele><time>2026-04-04T18:43:27.000Z</time></trkpt>
        <trkpt lat="28.6755167" lon="105.6581259"><ele>416.87</ele><time>2026-04-04T18:43:41.000Z</time></trkpt>
        <trkpt lat="28.6755501" lon="105.6580187"><ele>416.84</ele><time>2026-04-04T18:44:13.000Z</time></trkpt>
        <trkpt lat="28.6755349" lon="105.657912"><ele>416.95</ele><time>2026-04-04T18:44:23.000Z</time></trkpt>
        <trkpt lat="28.6754428" lon="105.6578685"><ele>416.97</ele><time>2026-04-04T18:44:35.000Z</time></trkpt>
        <trkpt lat="28.6753427" lon="105.6578153"><ele>418.58</ele><time>2026-04-04T18:44:49.000Z</time></trkpt>
        <trkpt lat="28.6753148" lon="105.6577217"><ele>420.69</ele><time>2026-04-04T18:45:07.000Z</time></trkpt>
        <trkpt lat="28.6753346" lon="105.657616"><ele>422.33</ele><time>2026-04-04T18:45:23.000Z</time></trkpt>
        <trkpt lat="28.6753698" lon="105.6575038"><ele>424.68</ele><time>2026-04-04T18:45:37.000Z</time></trkpt>
        <trkpt lat="28.6754133" lon="105.657402"><ele>427.4</ele><time>2026-04-04T18:45:49.000Z</time></trkpt>
        <trkpt lat="28.6754633" lon="105.6572964"><ele>430.02</ele><time>2026-04-04T18:46:03.000Z</time></trkpt>
        <trkpt lat="28.6755125" lon="105.657202"><ele>432.9</ele><time>2026-04-04T18:46:13.000Z</time></trkpt>
        <trkpt lat="28.67556" lon="105.657112"><ele>435.26</ele><time>2026-04-04T18:46:25.000Z</time></trkpt>
        <trkpt lat="28.6756187" lon="105.6570306"><ele>437.21</ele><time>2026-04-04T18:46:47.000Z</time></trkpt>
        <trkpt lat="28.6756738" lon="105.6569405"><ele>438.59</ele><time>2026-04-04T18:47:01.000Z</time></trkpt>
        <trkpt lat="28.6757104" lon="105.6568403"><ele>439.54</ele><time>2026-04-04T18:47:15.000Z</time></trkpt>
        <trkpt lat="28.6757464" lon="105.6567302"><ele>440.25</ele><time>2026-04-04T18:48:07.000Z</time></trkpt>
        <trkpt lat="28.6757618" lon="105.6566146"><ele>443.03</ele><time>2026-04-04T18:48:19.000Z</time></trkpt>
        <trkpt lat="28.6757476" lon="105.6565003"><ele>445.47</ele><time>2026-04-04T18:48:33.000Z</time></trkpt>
        <trkpt lat="28.675704" lon="105.6563948"><ele>448.23</ele><time>2026-04-04T18:48:51.000Z</time></trkpt>
        <trkpt lat="28.6756495" lon="105.6562891"><ele>450.37</ele><time>2026-04-04T18:49:07.000Z</time></trkpt>
        <trkpt lat="28.6756026" lon="105.6561867"><ele>451.85</ele><time>2026-04-04T18:49:21.000Z</time></trkpt>
        <trkpt lat="28.6755769" lon="105.6560855"><ele>451.91</ele><time>2026-04-04T18:49:33.000Z</time></trkpt>
        <trkpt lat="28.6755146" lon="105.6559993"><ele>451.09</ele><time>2026-04-04T18:49:59.000Z</time></trkpt>
        <trkpt lat="28.6754231" lon="105.6559925"><ele>449.98</ele><time>2026-04-04T18:50:11.000Z</time></trkpt>
        <trkpt lat="28.675315" lon="105.6559772"><ele>450.29</ele><time>2026-04-04T18:50:21.000Z</time></trkpt>
        <trkpt lat="28.6752183" lon="105.6559479"><ele>451.11</ele><time>2026-04-04T18:50:37.000Z</time></trkpt>
        <trkpt lat="28.6751417" lon="105.6558837"><ele>452.4</ele><time>2026-04-04T18:50:55.000Z</time></trkpt>
        <trkpt lat="28.6750731" lon="105.6557978"><ele>452.4</ele><time>2026-04-04T18:51:05.000Z</time></trkpt>
        <trkpt lat="28.6749953" lon="105.6557381"><ele>453.09</ele><time>2026-04-04T18:51:19.000Z</time></trkpt>
        <trkpt lat="28.674917" lon="105.6556676"><ele>453.65</ele><time>2026-04-04T18:51:31.000Z</time></trkpt>
        <trkpt lat="28.674841" lon="105.6556065"><ele>454.15</ele><time>2026-04-04T18:51:41.000Z</time></trkpt>
        <trkpt lat="28.674761" lon="105.6555319"><ele>454.51</ele><time>2026-04-04T18:51:51.000Z</time></trkpt>
        <trkpt lat="28.6746857" lon="105.6554645"><ele>454.85</ele><time>2026-04-04T18:52:01.000Z</time></trkpt>
        <trkpt lat="28.674671" lon="105.6554454"><ele>456.03</ele><time>2026-04-04T18:52:09.000Z</time></trkpt>
        <trkpt lat="28.6746108" lon="105.6553988"><ele>457.87</ele><time>2026-04-04T18:52:23.000Z</time></trkpt>
        <trkpt lat="28.674523" lon="105.6553658"><ele>459.3</ele><time>2026-04-04T18:52:53.000Z</time></trkpt>
        <trkpt lat="28.6744471" lon="105.6552964"><ele>460.55</ele><time>2026-04-04T18:53:19.000Z</time></trkpt>
        <trkpt lat="28.6743536" lon="105.6552495"><ele>460.79</ele><time>2026-04-04T18:53:37.000Z</time></trkpt>
        <trkpt lat="28.6742578" lon="105.6552248"><ele>460.66</ele><time>2026-04-04T18:53:47.000Z</time></trkpt>
        <trkpt lat="28.6741572" lon="105.6552242"><ele>460.72</ele><time>2026-04-04T18:53:57.000Z</time></trkpt>
        <trkpt lat="28.6740507" lon="105.6552121"><ele>460.93</ele><time>2026-04-04T18:54:09.000Z</time></trkpt>
        <trkpt lat="28.6739552" lon="105.6552152"><ele>461.6</ele><time>2026-04-04T18:54:27.000Z</time></trkpt>
        <trkpt lat="28.6738819" lon="105.6552933"><ele>461.86</ele><time>2026-04-04T18:54:49.000Z</time></trkpt>
        <trkpt lat="28.6738239" lon="105.6552551"><ele>465.26</ele><time>2026-04-04T18:55:48.000Z</time></trkpt>
        <trkpt lat="28.673749" lon="105.6551873"><ele>469.36</ele><time>2026-04-04T18:55:56.000Z</time></trkpt>
        <trkpt lat="28.67367" lon="105.6551175"><ele>470.33</ele><time>2026-04-04T18:56:08.000Z</time></trkpt>
        <trkpt lat="28.6735984" lon="105.6550381"><ele>469.24</ele><time>2026-04-04T18:56:20.000Z</time></trkpt>
        <trkpt lat="28.6735248" lon="105.6549724"><ele>467.67</ele><time>2026-04-04T18:56:30.000Z</time></trkpt>
        <trkpt lat="28.673439" lon="105.6549495"><ele>466.57</ele><time>2026-04-04T18:56:40.000Z</time></trkpt>
        <trkpt lat="28.6733411" lon="105.6549637"><ele>465.89</ele><time>2026-04-04T18:56:52.000Z</time></trkpt>
        <trkpt lat="28.6732345" lon="105.6549892"><ele>466.58</ele><time>2026-04-04T18:57:06.000Z</time></trkpt>
        <trkpt lat="28.6731332" lon="105.6549918"><ele>468.66</ele><time>2026-04-04T18:57:18.000Z</time></trkpt>
        <trkpt lat="28.6730323" lon="105.6550149"><ele>471.13</ele><time>2026-04-04T18:57:30.000Z</time></trkpt>
        <trkpt lat="28.6729369" lon="105.6550381"><ele>473.4</ele><time>2026-04-04T18:57:42.000Z</time></trkpt>
        <trkpt lat="28.672841" lon="105.6550113"><ele>475.29</ele><time>2026-04-04T18:58:12.000Z</time></trkpt>
        <trkpt lat="28.6727511" lon="105.6549444"><ele>475.34</ele><time>2026-04-04T18:58:24.000Z</time></trkpt>
        <trkpt lat="28.6726644" lon="105.6548702"><ele>475.32</ele><time>2026-04-04T18:58:34.000Z</time></trkpt>
        <trkpt lat="28.6725835" lon="105.6548032"><ele>475.53</ele><time>2026-04-04T18:58:48.000Z</time></trkpt>
        <trkpt lat="28.672545" lon="105.6547017"><ele>475.99</ele><time>2026-04-04T19:00:40.000Z</time></trkpt>
        <trkpt lat="28.6725367" lon="105.6545833"><ele>477.11</ele><time>2026-04-04T19:00:52.000Z</time></trkpt>
        <trkpt lat="28.6725241" lon="105.6544692"><ele>477.71</ele><time>2026-04-04T19:01:06.000Z</time></trkpt>
        <trkpt lat="28.6725134" lon="105.6543623"><ele>478.65</ele><time>2026-04-04T19:01:18.000Z</time></trkpt>
        <trkpt lat="28.6725295" lon="105.6542577"><ele>479.66</ele><time>2026-04-04T19:01:30.000Z</time></trkpt>
        <trkpt lat="28.6725466" lon="105.6541523"><ele>481.83</ele><time>2026-04-04T19:01:42.000Z</time></trkpt>
        <trkpt lat="28.6725589" lon="105.6540438"><ele>483.8</ele><time>2026-04-04T19:01:54.000Z</time></trkpt>
        <trkpt lat="28.6725498" lon="105.6539353"><ele>485.17</ele><time>2026-04-04T19:02:08.000Z</time></trkpt>
        <trkpt lat="28.6725766" lon="105.6538331"><ele>486.86</ele><time>2026-04-04T19:02:22.000Z</time></trkpt>
        <trkpt lat="28.6726025" lon="105.6537207"><ele>488.94</ele><time>2026-04-04T19:02:36.000Z</time></trkpt>
        <trkpt lat="28.6725854" lon="105.6536143"><ele>491.46</ele><time>2026-04-04T19:02:50.000Z</time></trkpt>
        <trkpt lat="28.672523" lon="105.6535367"><ele>493.72</ele><time>2026-04-04T19:03:26.000Z</time></trkpt>
        <trkpt lat="28.6724461" lon="105.6534734"><ele>494.61</ele><time>2026-04-04T19:03:40.000Z</time></trkpt>
        <trkpt lat="28.6723487" lon="105.6534386"><ele>496.07</ele><time>2026-04-04T19:03:52.000Z</time></trkpt>
        <trkpt lat="28.6722527" lon="105.6534176"><ele>498.1</ele><time>2026-04-04T19:04:04.000Z</time></trkpt>
        <trkpt lat="28.6721547" lon="105.6534017"><ele>499.95</ele><time>2026-04-04T19:04:16.000Z</time></trkpt>
        <trkpt lat="28.6720749" lon="105.6533393"><ele>501.56</ele><time>2026-04-04T19:05:04.000Z</time></trkpt>
        <trkpt lat="28.6720161" lon="105.6532436"><ele>503.17</ele><time>2026-04-04T19:05:16.000Z</time></trkpt>
        <trkpt lat="28.6719834" lon="105.6531311"><ele>503.7</ele><time>2026-04-04T19:05:26.000Z</time></trkpt>
        <trkpt lat="28.6719499" lon="105.6530117"><ele>503.53</ele><time>2026-04-04T19:05:36.000Z</time></trkpt>
        <trkpt lat="28.6719164" lon="105.6528983"><ele>503.6</ele><time>2026-04-04T19:05:48.000Z</time></trkpt>
        <trkpt lat="28.6718755" lon="105.6527875"><ele>503.82</ele><time>2026-04-04T19:05:58.000Z</time></trkpt>
        <trkpt lat="28.6718188" lon="105.6527033"><ele>503.85</ele><time>2026-04-04T19:06:06.000Z</time></trkpt>
        <trkpt lat="28.671744" lon="105.6526428"><ele>503.49</ele><time>2026-04-04T19:06:14.000Z</time></trkpt>
        <trkpt lat="28.6716458" lon="105.652622"><ele>503.36</ele><time>2026-04-04T19:06:24.000Z</time></trkpt>
        <trkpt lat="28.6715569" lon="105.6525724"><ele>503.38</ele><time>2026-04-04T19:06:36.000Z</time></trkpt>
        <trkpt lat="28.6715097" lon="105.6524703"><ele>503.43</ele><time>2026-04-04T19:06:48.000Z</time></trkpt>
        <trkpt lat="28.6714559" lon="105.6523763"><ele>503.93</ele><time>2026-04-04T19:07:00.000Z</time></trkpt>
        <trkpt lat="28.6714227" lon="105.6522756"><ele>505.3</ele><time>2026-04-04T19:07:16.000Z</time></trkpt>
        <trkpt lat="28.671385" lon="105.6521797"><ele>506.11</ele><time>2026-04-04T19:07:26.000Z</time></trkpt>
        <trkpt lat="28.6713418" lon="105.6520852"><ele>506.45</ele><time>2026-04-04T19:07:38.000Z</time></trkpt>
        <trkpt lat="28.6712884" lon="105.6519941"><ele>507.29</ele><time>2026-04-04T19:07:50.000Z</time></trkpt>
        <trkpt lat="28.6712489" lon="105.6518953"><ele>508.58</ele><time>2026-04-04T19:08:02.000Z</time></trkpt>
        <trkpt lat="28.6711925" lon="105.6517999"><ele>510.87</ele><time>2026-04-04T19:08:14.000Z</time></trkpt>
        <trkpt lat="28.6712033" lon="105.6516686"><ele>512.65</ele><time>2026-04-04T19:09:04.000Z</time></trkpt>
        <trkpt lat="28.67122" lon="105.6515517"><ele>513.1</ele><time>2026-04-04T19:12:38.000Z</time></trkpt>
        <trkpt lat="28.6712017" lon="105.651655"><ele>513.53</ele><time>2026-04-04T19:13:04.000Z</time></trkpt>
        <trkpt lat="28.6711509" lon="105.6517414"><ele>513.69</ele><time>2026-04-04T19:14:04.000Z</time></trkpt>
        <trkpt lat="28.6710817" lon="105.651645"><ele>515.03</ele><time>2026-04-04T19:17:18.000Z</time></trkpt>
        <trkpt lat="28.6710117" lon="105.6515683"><ele>519.1</ele><time>2026-04-04T19:17:34.000Z</time></trkpt>
        <trkpt lat="28.6709642" lon="105.6514733"><ele>522.16</ele><time>2026-04-04T19:17:46.000Z</time></trkpt>
        <trkpt lat="28.6709054" lon="105.6513725"><ele>524.88</ele><time>2026-04-04T19:18:00.000Z</time></trkpt>
        <trkpt lat="28.6708518" lon="105.6512723"><ele>527.43</ele><time>2026-04-04T19:18:12.000Z</time></trkpt>
        <trkpt lat="28.6708077" lon="105.6511639"><ele>529.18</ele><time>2026-04-04T19:18:24.000Z</time></trkpt>
        <trkpt lat="28.670748" lon="105.6510742"><ele>530.82</ele><time>2026-04-04T19:18:36.000Z</time></trkpt>
        <trkpt lat="28.6707046" lon="105.650972"><ele>532.45</ele><time>2026-04-04T19:18:48.000Z</time></trkpt>
        <trkpt lat="28.6706538" lon="105.6508707"><ele>533.46</ele><time>2026-04-04T19:19:00.000Z</time></trkpt>
        <trkpt lat="28.6706109" lon="105.6507664"><ele>534.51</ele><time>2026-04-04T19:19:10.000Z</time></trkpt>
        <trkpt lat="28.6705523" lon="105.6506723"><ele>535.11</ele><time>2026-04-04T19:19:24.000Z</time></trkpt>
        <trkpt lat="28.670505" lon="105.6505735"><ele>536.27</ele><time>2026-04-04T19:19:34.000Z</time></trkpt>
        <trkpt lat="28.6704425" lon="105.650495"><ele>537.57</ele><time>2026-04-04T19:19:44.000Z</time></trkpt>
        <trkpt lat="28.6703579" lon="105.6504365"><ele>539.05</ele><time>2026-04-04T19:19:54.000Z</time></trkpt>
        <trkpt lat="28.6702683" lon="105.650393"><ele>540.14</ele><time>2026-04-04T19:20:04.000Z</time></trkpt>
        <trkpt lat="28.6701761" lon="105.6503307"><ele>540.51</ele><time>2026-04-04T19:20:14.000Z</time></trkpt>
        <trkpt lat="28.670089" lon="105.6502787"><ele>540.64</ele><time>2026-04-04T19:20:26.000Z</time></trkpt>
        <trkpt lat="28.6699995" lon="105.6502204"><ele>540.23</ele><time>2026-04-04T19:20:40.000Z</time></trkpt>
        <trkpt lat="28.6699054" lon="105.6501607"><ele>540.13</ele><time>2026-04-04T19:20:50.000Z</time></trkpt>
        <trkpt lat="28.6698062" lon="105.6501406"><ele>540.33</ele><time>2026-04-04T19:21:02.000Z</time></trkpt>
        <trkpt lat="28.6697129" lon="105.6501363"><ele>541.74</ele><time>2026-04-04T19:21:12.000Z</time></trkpt>
        <trkpt lat="28.6696134" lon="105.6501558"><ele>543.57</ele><time>2026-04-04T19:21:24.000Z</time></trkpt>
        <trkpt lat="28.6695155" lon="105.6501256"><ele>545.3</ele><time>2026-04-04T19:21:34.000Z</time></trkpt>
        <trkpt lat="28.6694346" lon="105.6500485"><ele>545.99</ele><time>2026-04-04T19:21:48.000Z</time></trkpt>
        <trkpt lat="28.6693901" lon="105.6499471"><ele>545.39</ele><time>2026-04-04T19:22:06.000Z</time></trkpt>
        <trkpt lat="28.6693317" lon="105.6498477"><ele>544.84</ele><time>2026-04-04T19:22:16.000Z</time></trkpt>
        <trkpt lat="28.6692495" lon="105.6497959"><ele>544.99</ele><time>2026-04-04T19:22:28.000Z</time></trkpt>
        <trkpt lat="28.6691642" lon="105.6497292"><ele>545.3</ele><time>2026-04-04T19:22:40.000Z</time></trkpt>
        <trkpt lat="28.6690902" lon="105.6496478"><ele>545</ele><time>2026-04-04T19:22:52.000Z</time></trkpt>
        <trkpt lat="28.6690122" lon="105.6495771"><ele>544.35</ele><time>2026-04-04T19:23:02.000Z</time></trkpt>
        <trkpt lat="28.6689763" lon="105.6494836"><ele>543.9</ele><time>2026-04-04T19:23:18.000Z</time></trkpt>
        <trkpt lat="28.6689409" lon="105.6493753"><ele>543.08</ele><time>2026-04-04T19:23:32.000Z</time></trkpt>
        <trkpt lat="28.6689034" lon="105.6492689"><ele>542.23</ele><time>2026-04-04T19:23:42.000Z</time></trkpt>
        <trkpt lat="28.6688164" lon="105.6492261"><ele>541.66</ele><time>2026-04-04T19:23:52.000Z</time></trkpt>
        <trkpt lat="28.668735" lon="105.6493283"><ele>541.16</ele><time>2026-04-04T19:33:46.000Z</time></trkpt>
        <trkpt lat="28.66866" lon="105.6492717"><ele>542.98</ele><time>2026-04-04T19:34:10.000Z</time></trkpt>
        <trkpt lat="28.6685638" lon="105.6492658"><ele>543.38</ele><time>2026-04-04T19:34:28.000Z</time></trkpt>
        <trkpt lat="28.6684652" lon="105.6492727"><ele>543.26</ele><time>2026-04-04T19:35:20.000Z</time></trkpt>
        <trkpt lat="28.668382" lon="105.6492325"><ele>542.59</ele><time>2026-04-04T19:36:20.000Z</time></trkpt>
        <trkpt lat="28.6682067" lon="105.6491983"><ele>546.64</ele><time>2026-04-04T19:37:44.000Z</time></trkpt>
        <trkpt lat="28.6681267" lon="105.64913"><ele>552.6</ele><time>2026-04-04T19:38:36.000Z</time></trkpt>
        <trkpt lat="28.6680033" lon="105.6490867"><ele>560.64</ele><time>2026-04-04T19:39:56.000Z</time></trkpt>
        <trkpt lat="28.667945" lon="105.6490033"><ele>571.81</ele><time>2026-04-04T19:40:58.000Z</time></trkpt>
        <trkpt lat="28.667855" lon="105.6489917"><ele>582.65</ele><time>2026-04-04T19:41:16.000Z</time></trkpt>
        <trkpt lat="28.667741" lon="105.6489927"><ele>589.9</ele><time>2026-04-04T19:41:56.000Z</time></trkpt>
        <trkpt lat="28.6676395" lon="105.648987"><ele>595.79</ele><time>2026-04-04T19:42:12.000Z</time></trkpt>
        <trkpt lat="28.6675355" lon="105.6489491"><ele>599.54</ele><time>2026-04-04T19:42:48.000Z</time></trkpt>
        <trkpt lat="28.6674331" lon="105.6489422"><ele>603.26</ele><time>2026-04-04T19:43:36.000Z</time></trkpt>
        <trkpt lat="28.6673476" lon="105.6488657"><ele>608.74</ele><time>2026-04-04T19:44:04.000Z</time></trkpt>
        <trkpt lat="28.6672645" lon="105.6488043"><ele>612.6</ele><time>2026-04-04T19:44:30.000Z</time></trkpt>
        <trkpt lat="28.6671967" lon="105.64871"><ele>615.87</ele><time>2026-04-04T19:45:46.000Z</time></trkpt>
        <trkpt lat="28.6671133" lon="105.6487783"><ele>623.45</ele><time>2026-04-04T19:46:10.000Z</time></trkpt>
        <trkpt lat="28.6670272" lon="105.6487494"><ele>628.59</ele><time>2026-04-04T19:46:30.000Z</time></trkpt>
        <trkpt lat="28.6669405" lon="105.6487032"><ele>631.56</ele><time>2026-04-04T19:46:52.000Z</time></trkpt>
        <trkpt lat="28.6668562" lon="105.6486573"><ele>633.64</ele><time>2026-04-04T19:47:06.000Z</time></trkpt>
        <trkpt lat="28.6667665" lon="105.6486297"><ele>635.17</ele><time>2026-04-04T19:47:26.000Z</time></trkpt>
        <trkpt lat="28.6666748" lon="105.6486104"><ele>636.48</ele><time>2026-04-04T19:47:58.000Z</time></trkpt>
        <trkpt lat="28.6665864" lon="105.6485791"><ele>639.63</ele><time>2026-04-04T19:48:30.000Z</time></trkpt>
        <trkpt lat="28.6665019" lon="105.6485367"><ele>643.57</ele><time>2026-04-04T19:48:54.000Z</time></trkpt>
        <trkpt lat="28.6664613" lon="105.6484467"><ele>647.71</ele><time>2026-04-04T19:49:14.000Z</time></trkpt>
        <trkpt lat="28.6664141" lon="105.648354"><ele>650.37</ele><time>2026-04-04T19:49:34.000Z</time></trkpt>
        <trkpt lat="28.6663343" lon="105.6482859"><ele>652.15</ele><time>2026-04-04T19:49:54.000Z</time></trkpt>
        <trkpt lat="28.6662391" lon="105.648246"><ele>653.76</ele><time>2026-04-04T19:50:08.000Z</time></trkpt>
        <trkpt lat="28.6661622" lon="105.6481772"><ele>655.24</ele><time>2026-04-04T19:50:24.000Z</time></trkpt>
        <trkpt lat="28.6660783" lon="105.6481224"><ele>656.51</ele><time>2026-04-04T19:50:44.000Z</time></trkpt>
        <trkpt lat="28.665993" lon="105.6480809"><ele>657.88</ele><time>2026-04-04T19:51:04.000Z</time></trkpt>
        <trkpt lat="28.6659187" lon="105.6480213"><ele>659.22</ele><time>2026-04-04T19:51:26.000Z</time></trkpt>
        <trkpt lat="28.6658262" lon="105.6480067"><ele>662.1</ele><time>2026-04-04T19:52:08.000Z</time></trkpt>
        <trkpt lat="28.6658404" lon="105.6480854"><ele>663.99</ele><time>2026-04-04T19:52:26.000Z</time></trkpt>
        <trkpt lat="28.665858" lon="105.648201"><ele>665.33</ele><time>2026-04-04T19:52:56.000Z</time></trkpt>
        <trkpt lat="28.6659003" lon="105.6483163"><ele>667.51</ele><time>2026-04-04T19:53:14.000Z</time></trkpt>
        <trkpt lat="28.6659848" lon="105.6483998"><ele>669.79</ele><time>2026-04-04T19:53:30.000Z</time></trkpt>
        <trkpt lat="28.6660567" lon="105.6484889"><ele>671.73</ele><time>2026-04-04T19:54:02.000Z</time></trkpt>
        <trkpt lat="28.6661113" lon="105.6485866"><ele>673.09</ele><time>2026-04-04T19:54:16.000Z</time></trkpt>
        <trkpt lat="28.6661745" lon="105.6486659"><ele>674.08</ele><time>2026-04-04T19:54:32.000Z</time></trkpt>
        <trkpt lat="28.6661947" lon="105.6487693"><ele>674.95</ele><time>2026-04-04T19:54:50.000Z</time></trkpt>
        <trkpt lat="28.6662302" lon="105.6488747"><ele>675.62</ele><time>2026-04-04T19:55:08.000Z</time></trkpt>
        <trkpt lat="28.6662747" lon="105.6489773"><ele>677.24</ele><time>2026-04-04T19:55:24.000Z</time></trkpt>
        <trkpt lat="28.6663428" lon="105.6490483"><ele>678.39</ele><time>2026-04-04T19:55:38.000Z</time></trkpt>
        <trkpt lat="28.6664192" lon="105.64912"><ele>679.68</ele><time>2026-04-04T19:55:58.000Z</time></trkpt>
        <trkpt lat="28.6664884" lon="105.6491912"><ele>681.24</ele><time>2026-04-04T19:56:20.000Z</time></trkpt>
        <trkpt lat="28.6665312" lon="105.6492893"><ele>682.21</ele><time>2026-04-04T19:56:42.000Z</time></trkpt>
        <trkpt lat="28.6665454" lon="105.6494014"><ele>683.8</ele><time>2026-04-04T19:56:58.000Z</time></trkpt>
        <trkpt lat="28.6665503" lon="105.6495125"><ele>685.3</ele><time>2026-04-04T19:57:12.000Z</time></trkpt>
        <trkpt lat="28.6665792" lon="105.6496155"><ele>686.59</ele><time>2026-04-04T19:57:54.000Z</time></trkpt>
        <trkpt lat="28.6666136" lon="105.6497223"><ele>687.89</ele><time>2026-04-04T19:58:08.000Z</time></trkpt>
        <trkpt lat="28.6666057" lon="105.6498294"><ele>688.67</ele><time>2026-04-04T19:58:28.000Z</time></trkpt>
        <trkpt lat="28.6665342" lon="105.649885"><ele>688.47</ele><time>2026-04-04T19:58:44.000Z</time></trkpt>
        <trkpt lat="28.6664404" lon="105.649913"><ele>689.47</ele><time>2026-04-04T19:59:04.000Z</time></trkpt>
        <trkpt lat="28.6663442" lon="105.6499499"><ele>691.03</ele><time>2026-04-04T19:59:24.000Z</time></trkpt>
        <trkpt lat="28.666277" lon="105.6500219"><ele>692.74</ele><time>2026-04-04T19:59:56.000Z</time></trkpt>
        <trkpt lat="28.6662564" lon="105.6501291"><ele>694.83</ele><time>2026-04-04T20:00:26.000Z</time></trkpt>
        <trkpt lat="28.6662284" lon="105.650234"><ele>697.66</ele><time>2026-04-04T20:00:44.000Z</time></trkpt>
        <trkpt lat="28.6662213" lon="105.6503479"><ele>700.3</ele><time>2026-04-04T20:01:00.000Z</time></trkpt>
        <trkpt lat="28.6662006" lon="105.6502948"><ele>703.7</ele><time>2026-04-04T20:01:26.000Z</time></trkpt>
        <trkpt lat="28.6661959" lon="105.6501846"><ele>706.58</ele><time>2026-04-04T20:01:40.000Z</time></trkpt>
        <trkpt lat="28.6661754" lon="105.6500595"><ele>708.48</ele><time>2026-04-04T20:02:00.000Z</time></trkpt>
        <trkpt lat="28.6661383" lon="105.6499466"><ele>709.82</ele><time>2026-04-04T20:02:18.000Z</time></trkpt>
        <trkpt lat="28.6660867" lon="105.6498493"><ele>710.89</ele><time>2026-04-04T20:02:54.000Z</time></trkpt>
        <trkpt lat="28.6660083" lon="105.6497885"><ele>712.49</ele><time>2026-04-04T20:03:12.000Z</time></trkpt>
        <trkpt lat="28.6659152" lon="105.6497887"><ele>714</ele><time>2026-04-04T20:03:24.000Z</time></trkpt>
        <trkpt lat="28.6658153" lon="105.6498356"><ele>715.37</ele><time>2026-04-04T20:03:40.000Z</time></trkpt>
        <trkpt lat="28.6657273" lon="105.6498977"><ele>716.5</ele><time>2026-04-04T20:03:56.000Z</time></trkpt>
        <trkpt lat="28.6656576" lon="105.6499768"><ele>717.58</ele><time>2026-04-04T20:04:10.000Z</time></trkpt>
        <trkpt lat="28.6655909" lon="105.6500624"><ele>719.26</ele><time>2026-04-04T20:04:24.000Z</time></trkpt>
        <trkpt lat="28.6655395" lon="105.6501602"><ele>721.47</ele><time>2026-04-04T20:04:36.000Z</time></trkpt>
        <trkpt lat="28.6654967" lon="105.6502568"><ele>723.16</ele><time>2026-04-04T20:04:52.000Z</time></trkpt>
        <trkpt lat="28.665442" lon="105.6503464"><ele>724.51</ele><time>2026-04-04T20:05:08.000Z</time></trkpt>
        <trkpt lat="28.665392" lon="105.6504377"><ele>724.33</ele><time>2026-04-04T20:05:18.000Z</time></trkpt>
        <trkpt lat="28.6653512" lon="105.6505395"><ele>723.76</ele><time>2026-04-04T20:05:30.000Z</time></trkpt>
        <trkpt lat="28.6653061" lon="105.6506388"><ele>723.05</ele><time>2026-04-04T20:05:40.000Z</time></trkpt>
        <trkpt lat="28.6653239" lon="105.6507353"><ele>722.34</ele><time>2026-04-04T20:05:50.000Z</time></trkpt>
        <trkpt lat="28.6653658" lon="105.6508293"><ele>721.42</ele><time>2026-04-04T20:06:02.000Z</time></trkpt>
        <trkpt lat="28.6654393" lon="105.6509012"><ele>720.64</ele><time>2026-04-04T20:06:20.000Z</time></trkpt>
        <trkpt lat="28.6655225" lon="105.6509739"><ele>720.19</ele><time>2026-04-04T20:06:34.000Z</time></trkpt>
        <trkpt lat="28.6655757" lon="105.6510695"><ele>720.15</ele><time>2026-04-04T20:06:50.000Z</time></trkpt>
        <trkpt lat="28.6656044" lon="105.6511716"><ele>720.43</ele><time>2026-04-04T20:07:04.000Z</time></trkpt>
        <trkpt lat="28.6656195" lon="105.6512814"><ele>721.06</ele><time>2026-04-04T20:07:20.000Z</time></trkpt>
        <trkpt lat="28.6656575" lon="105.6513807"><ele>722.28</ele><time>2026-04-04T20:07:38.000Z</time></trkpt>
        <trkpt lat="28.6657367" lon="105.6513763"><ele>723.41</ele><time>2026-04-04T20:07:54.000Z</time></trkpt>
        <trkpt lat="28.6658117" lon="105.6513004"><ele>723.71</ele><time>2026-04-04T20:08:12.000Z</time></trkpt>
        <trkpt lat="28.6659054" lon="105.6512454"><ele>725.12</ele><time>2026-04-04T20:08:30.000Z</time></trkpt>
        <trkpt lat="28.6660009" lon="105.6511962"><ele>727.95</ele><time>2026-04-04T20:08:56.000Z</time></trkpt>
        <trkpt lat="28.6660893" lon="105.651153"><ele>730.34</ele><time>2026-04-04T20:09:14.000Z</time></trkpt>
        <trkpt lat="28.6661792" lon="105.6511293"><ele>732.43</ele><time>2026-04-04T20:09:30.000Z</time></trkpt>
        <trkpt lat="28.6662694" lon="105.6511091"><ele>734.31</ele><time>2026-04-04T20:09:44.000Z</time></trkpt>
        <trkpt lat="28.6663597" lon="105.651083"><ele>735.77</ele><time>2026-04-04T20:10:08.000Z</time></trkpt>
        <trkpt lat="28.6664611" lon="105.6510879"><ele>737.24</ele><time>2026-04-04T20:10:22.000Z</time></trkpt>
        <trkpt lat="28.6665591" lon="105.6510878"><ele>738.69</ele><time>2026-04-04T20:10:34.000Z</time></trkpt>
        <trkpt lat="28.6666501" lon="105.6510678"><ele>739.85</ele><time>2026-04-04T20:10:44.000Z</time></trkpt>
        <trkpt lat="28.6667323" lon="105.6510225"><ele>740.3</ele><time>2026-04-04T20:10:56.000Z</time></trkpt>
        <trkpt lat="28.6668114" lon="105.6509548"><ele>740.22</ele><time>2026-04-04T20:11:10.000Z</time></trkpt>
        <trkpt lat="28.6669039" lon="105.6509133"><ele>739.52</ele><time>2026-04-04T20:11:32.000Z</time></trkpt>
        <trkpt lat="28.667003" lon="105.6508835"><ele>739.38</ele><time>2026-04-04T20:11:46.000Z</time></trkpt>
        <trkpt lat="28.6671003" lon="105.6508503"><ele>738.4</ele><time>2026-04-04T20:12:00.000Z</time></trkpt>
        <trkpt lat="28.6671889" lon="105.6508162"><ele>737.15</ele><time>2026-04-04T20:12:12.000Z</time></trkpt>
        <trkpt lat="28.6672827" lon="105.6507879"><ele>736.31</ele><time>2026-04-04T20:12:24.000Z</time></trkpt>
        <trkpt lat="28.6673827" lon="105.6507778"><ele>735.53</ele><time>2026-04-04T20:12:36.000Z</time></trkpt>
        <trkpt lat="28.6673507" lon="105.6507265"><ele>734.49</ele><time>2026-04-04T20:13:28.000Z</time></trkpt>
        <trkpt lat="28.6673141" lon="105.6506639"><ele>733.85</ele><time>2026-04-04T20:13:42.000Z</time></trkpt>
        <trkpt lat="28.6672717" lon="105.6507633"><ele>733.57</ele><time>2026-04-04T20:16:04.000Z</time></trkpt>
        <trkpt lat="28.6671767" lon="105.6507833"><ele>733.71</ele><time>2026-04-04T20:16:20.000Z</time></trkpt>
        <trkpt lat="28.6670803" lon="105.6507582"><ele>734.05</ele><time>2026-04-04T20:16:30.000Z</time></trkpt>
        <trkpt lat="28.6669862" lon="105.6507624"><ele>733.99</ele><time>2026-04-04T20:16:40.000Z</time></trkpt>
        <trkpt lat="28.66688" lon="105.6507367"><ele>733.73</ele><time>2026-04-04T20:42:27.000Z</time></trkpt>
        <trkpt lat="28.666775" lon="105.650745"><ele>732.64</ele><time>2026-04-04T20:42:37.000Z</time></trkpt>
        <trkpt lat="28.6666855" lon="105.6507124"><ele>732.28</ele><time>2026-04-04T20:42:49.000Z</time></trkpt>
        <trkpt lat="28.6665936" lon="105.6507331"><ele>731.9</ele><time>2026-04-04T20:42:59.000Z</time></trkpt>
        <trkpt lat="28.6665224" lon="105.6508065"><ele>730.78</ele><time>2026-04-04T20:43:09.000Z</time></trkpt>
        <trkpt lat="28.6664484" lon="105.6508717"><ele>729.93</ele><time>2026-04-04T20:43:17.000Z</time></trkpt>
        <trkpt lat="28.6663698" lon="105.650924"><ele>729.49</ele><time>2026-04-04T20:43:29.000Z</time></trkpt>
        <trkpt lat="28.6662777" lon="105.6509711"><ele>730.27</ele><time>2026-04-04T20:43:43.000Z</time></trkpt>
        <trkpt lat="28.6661994" lon="105.6510363"><ele>731.44</ele><time>2026-04-04T20:43:55.000Z</time></trkpt>
        <trkpt lat="28.6661244" lon="105.6511208"><ele>731.77</ele><time>2026-04-04T20:44:14.000Z</time></trkpt>
        <trkpt lat="28.6661955" lon="105.6511237"><ele>745.63</ele><time>2026-04-04T20:44:42.000Z</time></trkpt>
        <trkpt lat="28.6663182" lon="105.651133"><ele>749.58</ele><time>2026-04-04T20:44:50.000Z</time></trkpt>
        <trkpt lat="28.6664543" lon="105.6511319"><ele>748.17</ele><time>2026-04-04T20:45:00.000Z</time></trkpt>
        <trkpt lat="28.6665466" lon="105.6511912"><ele>743.32</ele><time>2026-04-04T20:45:10.000Z</time></trkpt>
        <trkpt lat="28.6666409" lon="105.6512164"><ele>738.97</ele><time>2026-04-04T20:45:20.000Z</time></trkpt>
        <trkpt lat="28.6667335" lon="105.6512391"><ele>736.66</ele><time>2026-04-04T20:45:28.000Z</time></trkpt>
        <trkpt lat="28.6668329" lon="105.6512427"><ele>734.96</ele><time>2026-04-04T20:45:42.000Z</time></trkpt>
        <trkpt lat="28.6667894" lon="105.651212"><ele>734.63</ele><time>2026-04-04T20:46:12.000Z</time></trkpt>
        <trkpt lat="28.6667073" lon="105.6511527"><ele>734.66</ele><time>2026-04-04T20:46:22.000Z</time></trkpt>
        <trkpt lat="28.6666011" lon="105.6511342"><ele>735.19</ele><time>2026-04-04T20:46:28.000Z</time></trkpt>
        <trkpt lat="28.6664697" lon="105.6511373"><ele>735.24</ele><time>2026-04-04T20:46:40.000Z</time></trkpt>
        <trkpt lat="28.6663613" lon="105.6511739"><ele>735.14</ele><time>2026-04-04T20:46:46.000Z</time></trkpt>
        <trkpt lat="28.6662689" lon="105.6512138"><ele>734.6</ele><time>2026-04-04T20:46:52.000Z</time></trkpt>
        <trkpt lat="28.6661567" lon="105.6512471"><ele>733.31</ele><time>2026-04-04T20:47:06.000Z</time></trkpt>
        <trkpt lat="28.6660607" lon="105.6512839"><ele>732.4</ele><time>2026-04-04T20:47:16.000Z</time></trkpt>
        <trkpt lat="28.6659601" lon="105.6513091"><ele>730.94</ele><time>2026-04-04T20:47:24.000Z</time></trkpt>
        <trkpt lat="28.6658612" lon="105.651337"><ele>729.8</ele><time>2026-04-04T20:47:34.000Z</time></trkpt>
        <trkpt lat="28.6657954" lon="105.651429"><ele>728</ele><time>2026-04-04T20:47:52.000Z</time></trkpt>
        <trkpt lat="28.6657906" lon="105.6515494"><ele>726.79</ele><time>2026-04-04T20:48:04.000Z</time></trkpt>
        <trkpt lat="28.6658349" lon="105.6516693"><ele>724.3</ele><time>2026-04-04T20:48:14.000Z</time></trkpt>
        <trkpt lat="28.665864" lon="105.6518068"><ele>723.87</ele><time>2026-04-04T20:48:26.000Z</time></trkpt>
        <trkpt lat="28.6658463" lon="105.6519252"><ele>724.87</ele><time>2026-04-04T20:48:36.000Z</time></trkpt>
        <trkpt lat="28.6658273" lon="105.6519721"><ele>725.01</ele><time>2026-04-04T20:48:46.000Z</time></trkpt>
        <trkpt lat="28.665783" lon="105.6520468"><ele>726.3</ele><time>2026-04-04T20:49:04.000Z</time></trkpt>
        <trkpt lat="28.6657204" lon="105.6521217"><ele>727.55</ele><time>2026-04-04T20:49:40.000Z</time></trkpt>
        <trkpt lat="28.6656542" lon="105.6521961"><ele>730.11</ele><time>2026-04-04T20:50:20.000Z</time></trkpt>
        <trkpt lat="28.6655562" lon="105.6522342"><ele>732.13</ele><time>2026-04-04T20:50:30.000Z</time></trkpt>
        <trkpt lat="28.6654741" lon="105.6523169"><ele>733.58</ele><time>2026-04-04T20:50:40.000Z</time></trkpt>
        <trkpt lat="28.6654103" lon="105.652428"><ele>733.89</ele><time>2026-04-04T20:50:50.000Z</time></trkpt>
        <trkpt lat="28.6653535" lon="105.6525293"><ele>733.68</ele><time>2026-04-04T20:50:58.000Z</time></trkpt>
        <trkpt lat="28.665301" lon="105.6526386"><ele>733.09</ele><time>2026-04-04T20:51:10.000Z</time></trkpt>
        <trkpt lat="28.6652368" lon="105.6527388"><ele>732.96</ele><time>2026-04-04T20:51:22.000Z</time></trkpt>
        <trkpt lat="28.6651701" lon="105.6528387"><ele>732.98</ele><time>2026-04-04T20:51:34.000Z</time></trkpt>
        <trkpt lat="28.6651091" lon="105.6529223"><ele>732.43</ele><time>2026-04-04T20:51:44.000Z</time></trkpt>
        <trkpt lat="28.6650341" lon="105.6529949"><ele>731.69</ele><time>2026-04-04T20:52:00.000Z</time></trkpt>
        <trkpt lat="28.6650053" lon="105.6530958"><ele>730.31</ele><time>2026-04-04T20:52:16.000Z</time></trkpt>
        <trkpt lat="28.6649927" lon="105.6531994"><ele>729.84</ele><time>2026-04-04T20:52:32.000Z</time></trkpt>
        <trkpt lat="28.6650352" lon="105.6532879"><ele>732.79</ele><time>2026-04-04T20:52:56.000Z</time></trkpt>
        <trkpt lat="28.6651134" lon="105.6533489"><ele>733.83</ele><time>2026-04-04T20:53:04.000Z</time></trkpt>
        <trkpt lat="28.665218" lon="105.6533854"><ele>733.64</ele><time>2026-04-04T20:53:16.000Z</time></trkpt>
        <trkpt lat="28.6652593" lon="105.6534673"><ele>733.62</ele><time>2026-04-04T20:53:30.000Z</time></trkpt>
        <trkpt lat="28.6652851" lon="105.6535805"><ele>732.75</ele><time>2026-04-04T20:53:40.000Z</time></trkpt>
        <trkpt lat="28.6652729" lon="105.6536977"><ele>732.26</ele><time>2026-04-04T20:53:51.000Z</time></trkpt>
        <trkpt lat="28.6653212" lon="105.6536849"><ele>733.82</ele><time>2026-04-04T20:54:29.000Z</time></trkpt>
        <trkpt lat="28.6653982" lon="105.6537183"><ele>732.87</ele><time>2026-04-04T20:54:41.000Z</time></trkpt>
        <trkpt lat="28.6654377" lon="105.6538025"><ele>731.63</ele><time>2026-04-04T20:54:51.000Z</time></trkpt>
        <trkpt lat="28.6654861" lon="105.6539011"><ele>731.19</ele><time>2026-04-04T20:55:01.000Z</time></trkpt>
        <trkpt lat="28.6655133" lon="105.6540176"><ele>730.98</ele><time>2026-04-04T20:55:13.000Z</time></trkpt>
        <trkpt lat="28.6655929" lon="105.6540509"><ele>730.82</ele><time>2026-04-04T20:55:29.000Z</time></trkpt>
        <trkpt lat="28.6656839" lon="105.6540143"><ele>730.68</ele><time>2026-04-04T20:55:41.000Z</time></trkpt>
        <trkpt lat="28.6657806" lon="105.6539593"><ele>730.3</ele><time>2026-04-04T20:55:55.000Z</time></trkpt>
        <trkpt lat="28.6658775" lon="105.6539032"><ele>730.47</ele><time>2026-04-04T20:56:07.000Z</time></trkpt>
        <trkpt lat="28.6659719" lon="105.6539109"><ele>730.74</ele><time>2026-04-04T20:56:25.000Z</time></trkpt>
        <trkpt lat="28.6660447" lon="105.6539729"><ele>731.63</ele><time>2026-04-04T20:56:45.000Z</time></trkpt>
        <trkpt lat="28.6661119" lon="105.6540599"><ele>734.58</ele><time>2026-04-04T20:57:09.000Z</time></trkpt>
        <trkpt lat="28.6661769" lon="105.6541568"><ele>737</ele><time>2026-04-04T20:57:27.000Z</time></trkpt>
        <trkpt lat="28.6662531" lon="105.6542262"><ele>738.68</ele><time>2026-04-04T20:57:43.000Z</time></trkpt>
        <trkpt lat="28.6663379" lon="105.6542643"><ele>740.15</ele><time>2026-04-04T20:58:23.000Z</time></trkpt>
        <trkpt lat="28.6664279" lon="105.6543012"><ele>741.33</ele><time>2026-04-04T20:58:43.000Z</time></trkpt>
        <trkpt lat="28.666523" lon="105.6543345"><ele>743</ele><time>2026-04-04T20:58:59.000Z</time></trkpt>
        <trkpt lat="28.6666206" lon="105.6543575"><ele>743.69</ele><time>2026-04-04T20:59:39.000Z</time></trkpt>
        <trkpt lat="28.6667084" lon="105.6543899"><ele>744.68</ele><time>2026-04-04T20:59:49.000Z</time></trkpt>
        <trkpt lat="28.6667985" lon="105.6543792"><ele>744.99</ele><time>2026-04-04T21:00:49.000Z</time></trkpt>
        <trkpt lat="28.6668484" lon="105.6542952"><ele>744.99</ele><time>2026-04-04T21:01:01.000Z</time></trkpt>
        <trkpt lat="28.6668511" lon="105.6541816"><ele>744.35</ele><time>2026-04-04T21:01:09.000Z</time></trkpt>
        <trkpt lat="28.6668537" lon="105.6540664"><ele>743.38</ele><time>2026-04-04T21:01:19.000Z</time></trkpt>
        <trkpt lat="28.6668977" lon="105.6539674"><ele>741.8</ele><time>2026-04-04T21:01:29.000Z</time></trkpt>
        <trkpt lat="28.6669651" lon="105.6538731"><ele>739.78</ele><time>2026-04-04T21:01:41.000Z</time></trkpt>
        <trkpt lat="28.6670322" lon="105.6537771"><ele>737.64</ele><time>2026-04-04T21:01:53.000Z</time></trkpt>
        <trkpt lat="28.6670887" lon="105.6536667"><ele>735.21</ele><time>2026-04-04T21:02:03.000Z</time></trkpt>
        <trkpt lat="28.6671176" lon="105.6535586"><ele>732.75</ele><time>2026-04-04T21:02:11.000Z</time></trkpt>
        <trkpt lat="28.6671278" lon="105.6534459"><ele>731.1</ele><time>2026-04-04T21:02:21.000Z</time></trkpt>
        <trkpt lat="28.6671577" lon="105.6533343"><ele>729.59</ele><time>2026-04-04T21:02:35.000Z</time></trkpt>
        <trkpt lat="28.6671478" lon="105.6533839"><ele>727.66</ele><time>2026-04-04T21:03:15.000Z</time></trkpt>
        <trkpt lat="28.6671108" lon="105.6535025"><ele>726.64</ele><time>2026-04-04T21:03:23.000Z</time></trkpt>
        <trkpt lat="28.6670685" lon="105.65363"><ele>727.92</ele><time>2026-04-04T21:03:31.000Z</time></trkpt>
        <trkpt lat="28.6670418" lon="105.6537512"><ele>730.71</ele><time>2026-04-04T21:03:41.000Z</time></trkpt>
        <trkpt lat="28.6669901" lon="105.6538501"><ele>732.77</ele><time>2026-04-04T21:03:53.000Z</time></trkpt>
        <trkpt lat="28.6669254" lon="105.6539385"><ele>735.41</ele><time>2026-04-04T21:04:15.000Z</time></trkpt>
        <trkpt lat="28.6668587" lon="105.6540156"><ele>737.86</ele><time>2026-04-04T21:04:33.000Z</time></trkpt>
        <trkpt lat="28.6668252" lon="105.6541104"><ele>740.67</ele><time>2026-04-04T21:04:49.000Z</time></trkpt>
        <trkpt lat="28.6668197" lon="105.6542139"><ele>742.58</ele><time>2026-04-04T21:05:03.000Z</time></trkpt>
        <trkpt lat="28.6668069" lon="105.6543214"><ele>744.09</ele><time>2026-04-04T21:05:17.000Z</time></trkpt>
        <trkpt lat="28.6667641" lon="105.654417"><ele>745.69</ele><time>2026-04-04T21:05:41.000Z</time></trkpt>
        <trkpt lat="28.666712" lon="105.6545077"><ele>748.62</ele><time>2026-04-04T21:06:03.000Z</time></trkpt>
        <trkpt lat="28.6666678" lon="105.6546069"><ele>750.76</ele><time>2026-04-04T21:06:27.000Z</time></trkpt>
        <trkpt lat="28.6666238" lon="105.6547097"><ele>753.01</ele><time>2026-04-04T21:06:43.000Z</time></trkpt>
        <trkpt lat="28.6665952" lon="105.6548161"><ele>754.99</ele><time>2026-04-04T21:06:57.000Z</time></trkpt>
        <trkpt lat="28.6665585" lon="105.654921"><ele>756.41</ele><time>2026-04-04T21:07:21.000Z</time></trkpt>
        <trkpt lat="28.6665205" lon="105.6550212"><ele>756.41</ele><time>2026-04-04T21:07:45.000Z</time></trkpt>
        <trkpt lat="28.6664921" lon="105.6551258"><ele>756.15</ele><time>2026-04-04T21:08:03.000Z</time></trkpt>
        <trkpt lat="28.666466" lon="105.655226"><ele>756</ele><time>2026-04-04T21:08:21.000Z</time></trkpt>
        <trkpt lat="28.6664328" lon="105.6553245"><ele>756.43</ele><time>2026-04-04T21:08:39.000Z</time></trkpt>
        <trkpt lat="28.6664029" lon="105.6554274"><ele>757.02</ele><time>2026-04-04T21:09:15.000Z</time></trkpt>
        <trkpt lat="28.6663618" lon="105.6555222"><ele>757.57</ele><time>2026-04-04T21:09:35.000Z</time></trkpt>
        <trkpt lat="28.6663253" lon="105.6556227"><ele>759.26</ele><time>2026-04-04T21:09:53.000Z</time></trkpt>
        <trkpt lat="28.6662961" lon="105.6557217"><ele>761.94</ele><time>2026-04-04T21:10:05.000Z</time></trkpt>
        <trkpt lat="28.6662783" lon="105.6558315"><ele>764.16</ele><time>2026-04-04T21:10:19.000Z</time></trkpt>
        <trkpt lat="28.6662281" lon="105.6559277"><ele>765.43</ele><time>2026-04-04T21:10:37.000Z</time></trkpt>
        <trkpt lat="28.6661902" lon="105.6560233"><ele>766.06</ele><time>2026-04-04T21:10:59.000Z</time></trkpt>
        <trkpt lat="28.6661632" lon="105.6561266"><ele>766.25</ele><time>2026-04-04T21:11:57.000Z</time></trkpt>
        <trkpt lat="28.6661427" lon="105.6562281"><ele>763.6</ele><time>2026-04-04T21:12:11.000Z</time></trkpt>
        <trkpt lat="28.6661315" lon="105.656331"><ele>760.98</ele><time>2026-04-04T21:12:33.000Z</time></trkpt>
        <trkpt lat="28.6661418" lon="105.6564407"><ele>756.9</ele><time>2026-04-04T21:13:09.000Z</time></trkpt>
        <trkpt lat="28.6661528" lon="105.6565466"><ele>751.74</ele><time>2026-04-04T21:13:39.000Z</time></trkpt>
        <trkpt lat="28.6661901" lon="105.6566481"><ele>747.59</ele><time>2026-04-04T21:14:11.000Z</time></trkpt>
        <trkpt lat="28.6662222" lon="105.6567492"><ele>742.18</ele><time>2026-04-04T21:14:45.000Z</time></trkpt>
        <trkpt lat="28.6662268" lon="105.6568567"><ele>737.07</ele><time>2026-04-04T21:15:07.000Z</time></trkpt>
        <trkpt lat="28.6662243" lon="105.6569641"><ele>733.12</ele><time>2026-04-04T21:15:53.000Z</time></trkpt>
        <trkpt lat="28.666174" lon="105.657055"><ele>729.93</ele><time>2026-04-04T21:16:37.000Z</time></trkpt>
        <trkpt lat="28.6661197" lon="105.6571422"><ele>729.27</ele><time>2026-04-04T21:17:13.000Z</time></trkpt>
        <trkpt lat="28.6660634" lon="105.6572302"><ele>730.62</ele><time>2026-04-04T21:18:03.000Z</time></trkpt>
        <trkpt lat="28.6660069" lon="105.6573165"><ele>733.66</ele><time>2026-04-04T21:18:23.000Z</time></trkpt>
        <trkpt lat="28.6659566" lon="105.6574051"><ele>736.78</ele><time>2026-04-04T21:18:41.000Z</time></trkpt>
        <trkpt lat="28.6659128" lon="105.6574972"><ele>740.53</ele><time>2026-04-04T21:18:57.000Z</time></trkpt>
        <trkpt lat="28.6658233" lon="105.6575317"><ele>744.22</ele><time>2026-04-04T21:20:16.000Z</time></trkpt>
        <trkpt lat="28.665725" lon="105.6575317"><ele>745.41</ele><time>2026-04-04T21:20:30.000Z</time></trkpt>
        <trkpt lat="28.6656295" lon="105.6575387"><ele>746.44</ele><time>2026-04-04T21:20:42.000Z</time></trkpt>
        <trkpt lat="28.6655383" lon="105.6575637"><ele>747.07</ele><time>2026-04-04T21:20:54.000Z</time></trkpt>
        <trkpt lat="28.6654486" lon="105.6576095"><ele>746.74</ele><time>2026-04-04T21:21:10.000Z</time></trkpt>
        <trkpt lat="28.6653616" lon="105.6576032"><ele>745.9</ele><time>2026-04-04T21:21:24.000Z</time></trkpt>
        <trkpt lat="28.6652805" lon="105.6575488"><ele>745.34</ele><time>2026-04-04T21:21:38.000Z</time></trkpt>
        <trkpt lat="28.6652062" lon="105.6574598"><ele>745.2</ele><time>2026-04-04T21:21:52.000Z</time></trkpt>
        <trkpt lat="28.665144" lon="105.6573694"><ele>744.64</ele><time>2026-04-04T21:22:02.000Z</time></trkpt>
        <trkpt lat="28.6650881" lon="105.6572723"><ele>743.59</ele><time>2026-04-04T21:22:12.000Z</time></trkpt>
        <trkpt lat="28.6650422" lon="105.6571749"><ele>742.65</ele><time>2026-04-04T21:22:22.000Z</time></trkpt>
        <trkpt lat="28.6649553" lon="105.6571201"><ele>741.42</ele><time>2026-04-04T21:22:40.000Z</time></trkpt>
        <trkpt lat="28.6648549" lon="105.6571194"><ele>741.89</ele><time>2026-04-04T21:22:52.000Z</time></trkpt>
        <trkpt lat="28.6647614" lon="105.6571552"><ele>743.53</ele><time>2026-04-04T21:23:04.000Z</time></trkpt>
        <trkpt lat="28.6646782" lon="105.6572129"><ele>746.1</ele><time>2026-04-04T21:23:16.000Z</time></trkpt>
        <trkpt lat="28.6645968" lon="105.6572683"><ele>749.28</ele><time>2026-04-04T21:23:50.000Z</time></trkpt>
        <trkpt lat="28.6645132" lon="105.6573169"><ele>749.25</ele><time>2026-04-04T21:24:00.000Z</time></trkpt>
        <trkpt lat="28.6644236" lon="105.6573501"><ele>748.62</ele><time>2026-04-04T21:24:30.000Z</time></trkpt>
        <trkpt lat="28.664348" lon="105.6573058"><ele>747.28</ele><time>2026-04-04T21:24:38.000Z</time></trkpt>
        <trkpt lat="28.6642779" lon="105.657235"><ele>746.08</ele><time>2026-04-04T21:24:46.000Z</time></trkpt>
        <trkpt lat="28.664198" lon="105.6571704"><ele>746.31</ele><time>2026-04-04T21:25:02.000Z</time></trkpt>
        <trkpt lat="28.6641037" lon="105.6571168"><ele>747.34</ele><time>2026-04-04T21:25:14.000Z</time></trkpt>
        <trkpt lat="28.6640208" lon="105.6570478"><ele>748.01</ele><time>2026-04-04T21:25:22.000Z</time></trkpt>
        <trkpt lat="28.6639416" lon="105.6569771"><ele>748.13</ele><time>2026-04-04T21:25:36.000Z</time></trkpt>
        <trkpt lat="28.6638512" lon="105.6569269"><ele>748.94</ele><time>2026-04-04T21:25:46.000Z</time></trkpt>
        <trkpt lat="28.6638039" lon="105.6568347"><ele>748.62</ele><time>2026-04-04T21:26:02.000Z</time></trkpt>
        <trkpt lat="28.6638467" lon="105.6567527"><ele>748.01</ele><time>2026-04-04T21:26:12.000Z</time></trkpt>
        <trkpt lat="28.6639053" lon="105.6566549"><ele>748.01</ele><time>2026-04-04T21:26:22.000Z</time></trkpt>
        <trkpt lat="28.6638635" lon="105.6566671"><ele>747.53</ele><time>2026-04-04T21:26:54.000Z</time></trkpt>
        <trkpt lat="28.6637909" lon="105.6566342"><ele>745.24</ele><time>2026-04-04T21:27:08.000Z</time></trkpt>
        <trkpt lat="28.6637141" lon="105.6565692"><ele>741.52</ele><time>2026-04-04T21:27:54.000Z</time></trkpt>
        <trkpt lat="28.6636506" lon="105.6564847"><ele>736.87</ele><time>2026-04-04T21:28:12.000Z</time></trkpt>
        <trkpt lat="28.6635776" lon="105.6564096"><ele>732.67</ele><time>2026-04-04T21:28:26.000Z</time></trkpt>
        <trkpt lat="28.6635192" lon="105.6563198"><ele>729.2</ele><time>2026-04-04T21:28:44.000Z</time></trkpt>
        <trkpt lat="28.6634554" lon="105.6562401"><ele>727.18</ele><time>2026-04-04T21:29:02.000Z</time></trkpt>
        <trkpt lat="28.663363" lon="105.6562315"><ele>726.2</ele><time>2026-04-04T21:29:16.000Z</time></trkpt>
        <trkpt lat="28.6632577" lon="105.6562564"><ele>726.11</ele><time>2026-04-04T21:29:30.000Z</time></trkpt>
        <trkpt lat="28.6632082" lon="105.6563599"><ele>726.37</ele><time>2026-04-04T21:29:42.000Z</time></trkpt>
        <trkpt lat="28.6632057" lon="105.6564167"><ele>727.07</ele><time>2026-04-04T21:29:50.000Z</time></trkpt>
        <trkpt lat="28.6632368" lon="105.6563599"><ele>727.51</ele><time>2026-04-04T21:30:48.000Z</time></trkpt>
        <trkpt lat="28.6631713" lon="105.6563185"><ele>729.14</ele><time>2026-04-04T21:31:12.000Z</time></trkpt>
        <trkpt lat="28.6630755" lon="105.6562972"><ele>729.51</ele><time>2026-04-04T21:31:26.000Z</time></trkpt>
        <trkpt lat="28.6629743" lon="105.6562829"><ele>729.42</ele><time>2026-04-04T21:31:54.000Z</time></trkpt>
        <trkpt lat="28.6629322" lon="105.6561887"><ele>728.9</ele><time>2026-04-04T21:32:36.000Z</time></trkpt>
        <trkpt lat="28.6629588" lon="105.6560774"><ele>726.75</ele><time>2026-04-04T21:32:50.000Z</time></trkpt>
        <trkpt lat="28.6630184" lon="105.6559729"><ele>725.22</ele><time>2026-04-04T21:33:02.000Z</time></trkpt>
        <trkpt lat="28.6630852" lon="105.6558753"><ele>724.61</ele><time>2026-04-04T21:33:19.000Z</time></trkpt>
        <trkpt lat="28.66308" lon="105.6557689"><ele>727.79</ele><time>2026-04-04T21:33:31.000Z</time></trkpt>
        <trkpt lat="28.6631148" lon="105.6556735"><ele>729.43</ele><time>2026-04-04T21:33:41.000Z</time></trkpt>
        <trkpt lat="28.6631891" lon="105.6556202"><ele>730.06</ele><time>2026-04-04T21:33:53.000Z</time></trkpt>
        <trkpt lat="28.6632746" lon="105.6556585"><ele>730.08</ele><time>2026-04-04T21:34:05.000Z</time></trkpt>
        <trkpt lat="28.6633564" lon="105.6557441"><ele>729.57</ele><time>2026-04-04T21:34:17.000Z</time></trkpt>
        <trkpt lat="28.6634187" lon="105.6558419"><ele>728.34</ele><time>2026-04-04T21:34:27.000Z</time></trkpt>
        <trkpt lat="28.6634817" lon="105.6559382"><ele>727.07</ele><time>2026-04-04T21:34:37.000Z</time></trkpt>
        <trkpt lat="28.6635581" lon="105.6560152"><ele>727.08</ele><time>2026-04-04T21:34:49.000Z</time></trkpt>
        <trkpt lat="28.6636573" lon="105.656013"><ele>727.26</ele><time>2026-04-04T21:35:01.000Z</time></trkpt>
        <trkpt lat="28.6637604" lon="105.6559906"><ele>725.9</ele><time>2026-04-04T21:35:13.000Z</time></trkpt>
        <trkpt lat="28.6638421" lon="105.6560291"><ele>723.71</ele><time>2026-04-04T21:35:27.000Z</time></trkpt>
        <trkpt lat="28.6639262" lon="105.6559781"><ele>721.81</ele><time>2026-04-04T21:35:49.000Z</time></trkpt>
        <trkpt lat="28.6640005" lon="105.6559016"><ele>721.38</ele><time>2026-04-04T21:36:01.000Z</time></trkpt>
        <trkpt lat="28.6640439" lon="105.6557973"><ele>723.15</ele><time>2026-04-04T21:36:13.000Z</time></trkpt>
        <trkpt lat="28.6640429" lon="105.6556764"><ele>724.2</ele><time>2026-04-04T21:36:27.000Z</time></trkpt>
        <trkpt lat="28.6640201" lon="105.6555579"><ele>724.5</ele><time>2026-04-04T21:36:39.000Z</time></trkpt>
        <trkpt lat="28.6639917" lon="105.6554505"><ele>724.5</ele><time>2026-04-04T21:36:53.000Z</time></trkpt>
        <trkpt lat="28.6639905" lon="105.655341"><ele>724.24</ele><time>2026-04-04T21:37:09.000Z</time></trkpt>
        <trkpt lat="28.663995" lon="105.6552333"><ele>722.63</ele><time>2026-04-04T21:37:21.000Z</time></trkpt>
        <trkpt lat="28.663991" lon="105.6551213"><ele>720.68</ele><time>2026-04-04T21:37:35.000Z</time></trkpt>
        <trkpt lat="28.6639621" lon="105.6550217"><ele>719.1</ele><time>2026-04-04T21:37:51.000Z</time></trkpt>
        <trkpt lat="28.6639205" lon="105.6549254"><ele>717.68</ele><time>2026-04-04T21:38:15.000Z</time></trkpt>
        <trkpt lat="28.6638607" lon="105.6548449"><ele>717</ele><time>2026-04-04T21:38:27.000Z</time></trkpt>
        <trkpt lat="28.663792" lon="105.6547709"><ele>716.7</ele><time>2026-04-04T21:38:41.000Z</time></trkpt>
        <trkpt lat="28.663713" lon="105.654712"><ele>716.36</ele><time>2026-04-04T21:39:07.000Z</time></trkpt>
        <trkpt lat="28.6636392" lon="105.6546501"><ele>716.42</ele><time>2026-04-04T21:39:47.000Z</time></trkpt>
        <trkpt lat="28.6635517" lon="105.6545767"><ele>715.59</ele><time>2026-04-04T21:41:05.000Z</time></trkpt>
        <trkpt lat="28.6634883" lon="105.6544817"><ele>716.8</ele><time>2026-04-04T21:41:15.000Z</time></trkpt>
        <trkpt lat="28.6634194" lon="105.6544078"><ele>717.4</ele><time>2026-04-04T21:41:23.000Z</time></trkpt>
        <trkpt lat="28.6633597" lon="105.6543158"><ele>717.79</ele><time>2026-04-04T21:41:33.000Z</time></trkpt>
        <trkpt lat="28.6633091" lon="105.6542133"><ele>717.84</ele><time>2026-04-04T21:41:43.000Z</time></trkpt>
        <trkpt lat="28.6632292" lon="105.6541497"><ele>717.86</ele><time>2026-04-04T21:41:55.000Z</time></trkpt>
        <trkpt lat="28.663134" lon="105.6541701"><ele>717.97</ele><time>2026-04-04T21:42:05.000Z</time></trkpt>
        <trkpt lat="28.6630396" lon="105.654232"><ele>717.98</ele><time>2026-04-04T21:42:19.000Z</time></trkpt>
        <trkpt lat="28.6629418" lon="105.6542546"><ele>717.82</ele><time>2026-04-04T21:42:35.000Z</time></trkpt>
        <trkpt lat="28.6628449" lon="105.6542428"><ele>716.86</ele><time>2026-04-04T21:42:47.000Z</time></trkpt>
        <trkpt lat="28.6627476" lon="105.6542177"><ele>714.81</ele><time>2026-04-04T21:42:59.000Z</time></trkpt>
        <trkpt lat="28.6626668" lon="105.6541506"><ele>712.31</ele><time>2026-04-04T21:43:15.000Z</time></trkpt>
        <trkpt lat="28.6625958" lon="105.6540571"><ele>709.55</ele><time>2026-04-04T21:43:29.000Z</time></trkpt>
        <trkpt lat="28.6625376" lon="105.6539634"><ele>706.86</ele><time>2026-04-04T21:43:41.000Z</time></trkpt>
        <trkpt lat="28.6624669" lon="105.6538927"><ele>704.43</ele><time>2026-04-04T21:43:53.000Z</time></trkpt>
        <trkpt lat="28.6623954" lon="105.6538183"><ele>702.14</ele><time>2026-04-04T21:44:05.000Z</time></trkpt>
        <trkpt lat="28.6623261" lon="105.6537372"><ele>699.84</ele><time>2026-04-04T21:44:15.000Z</time></trkpt>
        <trkpt lat="28.6622515" lon="105.6536637"><ele>698.58</ele><time>2026-04-04T21:44:25.000Z</time></trkpt>
        <trkpt lat="28.6621623" lon="105.6536396"><ele>697.81</ele><time>2026-04-04T21:44:59.000Z</time></trkpt>
        <trkpt lat="28.6620692" lon="105.6536659"><ele>696.82</ele><time>2026-04-04T21:45:13.000Z</time></trkpt>
        <trkpt lat="28.6620647" lon="105.6537642"><ele>696.21</ele><time>2026-04-04T21:45:21.000Z</time></trkpt>
        <trkpt lat="28.6621006" lon="105.6538832"><ele>695.52</ele><time>2026-04-04T21:45:35.000Z</time></trkpt>
        <trkpt lat="28.6621594" lon="105.6539924"><ele>693.79</ele><time>2026-04-04T21:45:45.000Z</time></trkpt>
        <trkpt lat="28.6622182" lon="105.6540985"><ele>690.61</ele><time>2026-04-04T21:45:59.000Z</time></trkpt>
        <trkpt lat="28.6622708" lon="105.6541955"><ele>686.86</ele><time>2026-04-04T21:46:11.000Z</time></trkpt>
        <trkpt lat="28.6623154" lon="105.6542958"><ele>683.74</ele><time>2026-04-04T21:46:23.000Z</time></trkpt>
        <trkpt lat="28.6623314" lon="105.6544"><ele>681.87</ele><time>2026-04-04T21:46:39.000Z</time></trkpt>
        <trkpt lat="28.6622968" lon="105.6544978"><ele>680.16</ele><time>2026-04-04T21:46:49.000Z</time></trkpt>
        <trkpt lat="28.6622267" lon="105.6545693"><ele>679.1</ele><time>2026-04-04T21:47:01.000Z</time></trkpt>
        <trkpt lat="28.6621221" lon="105.6545763"><ele>678.76</ele><time>2026-04-04T21:47:11.000Z</time></trkpt>
        <trkpt lat="28.6620063" lon="105.6545525"><ele>678.91</ele><time>2026-04-04T21:47:25.000Z</time></trkpt>
        <trkpt lat="28.6619042" lon="105.654513"><ele>678.82</ele><time>2026-04-04T21:47:37.000Z</time></trkpt>
        <trkpt lat="28.6618134" lon="105.654468"><ele>678.81</ele><time>2026-04-04T21:47:49.000Z</time></trkpt>
        <trkpt lat="28.6617313" lon="105.6544165"><ele>678.93</ele><time>2026-04-04T21:48:05.000Z</time></trkpt>
        <trkpt lat="28.6616421" lon="105.6543745"><ele>678.83</ele><time>2026-04-04T21:48:15.000Z</time></trkpt>
        <trkpt lat="28.6615433" lon="105.6543562"><ele>678.13</ele><time>2026-04-04T21:48:29.000Z</time></trkpt>
        <trkpt lat="28.6614462" lon="105.6543441"><ele>677.6</ele><time>2026-04-04T21:48:41.000Z</time></trkpt>
        <trkpt lat="28.6613503" lon="105.6543432"><ele>676.31</ele><time>2026-04-04T21:48:51.000Z</time></trkpt>
        <trkpt lat="28.6612537" lon="105.6543203"><ele>675.19</ele><time>2026-04-04T21:49:05.000Z</time></trkpt>
        <trkpt lat="28.6611469" lon="105.6543008"><ele>674.03</ele><time>2026-04-04T21:49:19.000Z</time></trkpt>
        <trkpt lat="28.6610427" lon="105.6542957"><ele>672.51</ele><time>2026-04-04T21:49:31.000Z</time></trkpt>
        <trkpt lat="28.6609526" lon="105.6543448"><ele>670.36</ele><time>2026-04-04T21:49:45.000Z</time></trkpt>
        <trkpt lat="28.6608853" lon="105.6544255"><ele>667.49</ele><time>2026-04-04T21:49:59.000Z</time></trkpt>
        <trkpt lat="28.6608231" lon="105.6545106"><ele>664.74</ele><time>2026-04-04T21:50:13.000Z</time></trkpt>
        <trkpt lat="28.6607876" lon="105.6546202"><ele>662.92</ele><time>2026-04-04T21:50:27.000Z</time></trkpt>
        <trkpt lat="28.6607869" lon="105.6547365"><ele>660.29</ele><time>2026-04-04T21:50:39.000Z</time></trkpt>
        <trkpt lat="28.6608044" lon="105.6548479"><ele>657.5</ele><time>2026-04-04T21:50:53.000Z</time></trkpt>
        <trkpt lat="28.6608368" lon="105.6549558"><ele>654.87</ele><time>2026-04-04T21:51:23.000Z</time></trkpt>
        <trkpt lat="28.6607869" lon="105.6550481"><ele>653.47</ele><time>2026-04-04T21:51:41.000Z</time></trkpt>
        <trkpt lat="28.6606997" lon="105.6550806"><ele>653.95</ele><time>2026-04-04T21:51:53.000Z</time></trkpt>
        <trkpt lat="28.6605998" lon="105.6550571"><ele>653.54</ele><time>2026-04-04T21:52:05.000Z</time></trkpt>
        <trkpt lat="28.660504" lon="105.6549992"><ele>652.54</ele><time>2026-04-04T21:52:17.000Z</time></trkpt>
        <trkpt lat="28.66041" lon="105.6549588"><ele>651.19</ele><time>2026-04-04T21:52:31.000Z</time></trkpt>
        <trkpt lat="28.6603178" lon="105.6549306"><ele>649.94</ele><time>2026-04-04T21:52:43.000Z</time></trkpt>
        <trkpt lat="28.6602269" lon="105.6549334"><ele>648.51</ele><time>2026-04-04T21:52:55.000Z</time></trkpt>
        <trkpt lat="28.6601666" lon="105.6548637"><ele>646.22</ele><time>2026-04-04T21:53:11.000Z</time></trkpt>
        <trkpt lat="28.6601276" lon="105.6547647"><ele>642.82</ele><time>2026-04-04T21:53:27.000Z</time></trkpt>
        <trkpt lat="28.660111" lon="105.6546479"><ele>639.32</ele><time>2026-04-04T21:53:39.000Z</time></trkpt>
        <trkpt lat="28.660068" lon="105.6545493"><ele>637.12</ele><time>2026-04-04T21:53:53.000Z</time></trkpt>
        <trkpt lat="28.6599967" lon="105.6544738"><ele>635.73</ele><time>2026-04-04T21:54:05.000Z</time></trkpt>
        <trkpt lat="28.6599103" lon="105.6544184"><ele>635.68</ele><time>2026-04-04T21:54:15.000Z</time></trkpt>
        <trkpt lat="28.6598138" lon="105.6543793"><ele>636.29</ele><time>2026-04-04T21:54:25.000Z</time></trkpt>
        <trkpt lat="28.6597091" lon="105.6543721"><ele>636.98</ele><time>2026-04-04T21:54:37.000Z</time></trkpt>
        <trkpt lat="28.6596028" lon="105.6543948"><ele>638.07</ele><time>2026-04-04T21:54:47.000Z</time></trkpt>
        <trkpt lat="28.6595184" lon="105.6544496"><ele>639.24</ele><time>2026-04-04T21:54:55.000Z</time></trkpt>
        <trkpt lat="28.6594341" lon="105.6545142"><ele>640.21</ele><time>2026-04-04T21:55:09.000Z</time></trkpt>
        <trkpt lat="28.6593301" lon="105.6545453"><ele>639.95</ele><time>2026-04-04T21:55:19.000Z</time></trkpt>
        <trkpt lat="28.6592248" lon="105.6545517"><ele>638.47</ele><time>2026-04-04T21:55:31.000Z</time></trkpt>
        <trkpt lat="28.6591199" lon="105.6545673"><ele>635.56</ele><time>2026-04-04T21:55:41.000Z</time></trkpt>
        <trkpt lat="28.6590244" lon="105.6545879"><ele>632.52</ele><time>2026-04-04T21:55:55.000Z</time></trkpt>
        <trkpt lat="28.6589213" lon="105.6545907"><ele>631.01</ele><time>2026-04-04T21:56:05.000Z</time></trkpt>
        <trkpt lat="28.6588226" lon="105.6545831"><ele>630.7</ele><time>2026-04-04T21:56:15.000Z</time></trkpt>
        <trkpt lat="28.6587194" lon="105.6545777"><ele>630.74</ele><time>2026-04-04T21:56:25.000Z</time></trkpt>
        <trkpt lat="28.6587572" lon="105.6546017"><ele>631.11</ele><time>2026-04-04T21:56:51.000Z</time></trkpt>
        <trkpt lat="28.6587453" lon="105.6545405"><ele>631.58</ele><time>2026-04-04T21:57:07.000Z</time></trkpt>
        <trkpt lat="28.6586813" lon="105.6544693"><ele>632.75</ele><time>2026-04-04T21:57:17.000Z</time></trkpt>
        <trkpt lat="28.6585882" lon="105.6544146"><ele>634.28</ele><time>2026-04-04T21:57:31.000Z</time></trkpt>
        <trkpt lat="28.6584903" lon="105.6543537"><ele>635.66</ele><time>2026-04-04T21:57:45.000Z</time></trkpt>
        <trkpt lat="28.6583972" lon="105.6543147"><ele>636.84</ele><time>2026-04-04T21:57:57.000Z</time></trkpt>
        <trkpt lat="28.6583026" lon="105.6542818"><ele>636.39</ele><time>2026-04-04T21:58:11.000Z</time></trkpt>
        <trkpt lat="28.6582043" lon="105.6542616"><ele>634.72</ele><time>2026-04-04T21:58:29.000Z</time></trkpt>
        <trkpt lat="28.6581125" lon="105.6542326"><ele>633.25</ele><time>2026-04-04T21:58:47.000Z</time></trkpt>
        <trkpt lat="28.6580186" lon="105.6541956"><ele>632.45</ele><time>2026-04-04T21:58:59.000Z</time></trkpt>
        <trkpt lat="28.6579438" lon="105.6541293"><ele>631.27</ele><time>2026-04-04T21:59:13.000Z</time></trkpt>
        <trkpt lat="28.6578598" lon="105.6540901"><ele>630.46</ele><time>2026-04-04T21:59:25.000Z</time></trkpt>
        <trkpt lat="28.6577638" lon="105.654054"><ele>629.83</ele><time>2026-04-04T21:59:37.000Z</time></trkpt>
        <trkpt lat="28.6576647" lon="105.6540484"><ele>628.57</ele><time>2026-04-04T21:59:49.000Z</time></trkpt>
        <trkpt lat="28.6575639" lon="105.6540724"><ele>626.3</ele><time>2026-04-04T22:00:01.000Z</time></trkpt>
        <trkpt lat="28.6575042" lon="105.654084"><ele>622.78</ele><time>2026-04-04T22:00:15.000Z</time></trkpt>
        <trkpt lat="28.6574312" lon="105.654141"><ele>619.99</ele><time>2026-04-04T22:00:49.000Z</time></trkpt>
        <trkpt lat="28.6573361" lon="105.6541588"><ele>618.19</ele><time>2026-04-04T22:01:01.000Z</time></trkpt>
        <trkpt lat="28.6572427" lon="105.6541594"><ele>617.76</ele><time>2026-04-04T22:01:11.000Z</time></trkpt>
        <trkpt lat="28.6571509" lon="105.6541818"><ele>617</ele><time>2026-04-04T22:01:23.000Z</time></trkpt>
        <trkpt lat="28.6570551" lon="105.6542211"><ele>615.28</ele><time>2026-04-04T22:01:33.000Z</time></trkpt>
        <trkpt lat="28.6569518" lon="105.6542422"><ele>612.19</ele><time>2026-04-04T22:01:43.000Z</time></trkpt>
        <trkpt lat="28.6568347" lon="105.6542592"><ele>609.06</ele><time>2026-04-04T22:01:53.000Z</time></trkpt>
        <trkpt lat="28.6567445" lon="105.6543013"><ele>607.31</ele><time>2026-04-04T22:02:05.000Z</time></trkpt>
        <trkpt lat="28.6566889" lon="105.6543832"><ele>605.07</ele><time>2026-04-04T22:02:19.000Z</time></trkpt>
        <trkpt lat="28.6566577" lon="105.6544821"><ele>602.5</ele><time>2026-04-04T22:02:31.000Z</time></trkpt>
        <trkpt lat="28.6566316" lon="105.654592"><ele>599.36</ele><time>2026-04-04T22:02:47.000Z</time></trkpt>
        <trkpt lat="28.6566487" lon="105.6546972"><ele>596.15</ele><time>2026-04-04T22:03:09.000Z</time></trkpt>
        <trkpt lat="28.6566533" lon="105.6548183"><ele>594.88</ele><time>2026-04-04T22:04:31.000Z</time></trkpt>
        <trkpt lat="28.6566117" lon="105.6549317"><ele>594.16</ele><time>2026-04-04T22:04:43.000Z</time></trkpt>
        <trkpt lat="28.6565799" lon="105.6550436"><ele>594.22</ele><time>2026-04-04T22:04:53.000Z</time></trkpt>
        <trkpt lat="28.6565678" lon="105.6551488"><ele>594</ele><time>2026-04-04T22:05:15.000Z</time></trkpt>
        <trkpt lat="28.6566222" lon="105.6551203"><ele>593.7</ele><time>2026-04-04T22:05:49.000Z</time></trkpt>
        <trkpt lat="28.6567198" lon="105.6551251"><ele>591.63</ele><time>2026-04-04T22:06:03.000Z</time></trkpt>
        <trkpt lat="28.6568267" lon="105.6551683"><ele>589.98</ele><time>2026-04-04T22:07:29.000Z</time></trkpt>
        <trkpt lat="28.656795" lon="105.6552817"><ele>589.65</ele><time>2026-04-04T22:08:07.000Z</time></trkpt>
        <trkpt lat="28.6568465" lon="105.655371"><ele>589.24</ele><time>2026-04-04T22:08:21.000Z</time></trkpt>
        <trkpt lat="28.6569167" lon="105.655451"><ele>588.79</ele><time>2026-04-04T22:08:37.000Z</time></trkpt>
        <trkpt lat="28.6569792" lon="105.6553937"><ele>588.84</ele><time>2026-04-04T22:08:53.000Z</time></trkpt>
        <trkpt lat="28.6569499" lon="105.6552977"><ele>589.21</ele><time>2026-04-04T22:09:25.000Z</time></trkpt>
        <trkpt lat="28.6569407" lon="105.6551798"><ele>590.11</ele><time>2026-04-04T22:09:49.000Z</time></trkpt>
        <trkpt lat="28.6569246" lon="105.6550604"><ele>591.27</ele><time>2026-04-04T22:10:41.000Z</time></trkpt>
        <trkpt lat="28.656867" lon="105.6549664"><ele>591.24</ele><time>2026-04-04T22:11:15.000Z</time></trkpt>
        <trkpt lat="28.6567741" lon="105.6549381"><ele>591.35</ele><time>2026-04-04T22:11:31.000Z</time></trkpt>
        <trkpt lat="28.6566735" lon="105.6549388"><ele>591.2</ele><time>2026-04-04T22:11:51.000Z</time></trkpt>
        <trkpt lat="28.6566838" lon="105.6548776"><ele>593.01</ele><time>2026-04-04T22:12:11.000Z</time></trkpt>
        <trkpt lat="28.6567068" lon="105.6547639"><ele>595.33</ele><time>2026-04-04T22:12:55.000Z</time></trkpt>
        <trkpt lat="28.6567371" lon="105.6546514"><ele>595.57</ele><time>2026-04-04T22:13:05.000Z</time></trkpt>
        <trkpt lat="28.656818" lon="105.6546132"><ele>595.28</ele><time>2026-04-04T22:13:27.000Z</time></trkpt>
        <trkpt lat="28.6568891" lon="105.6546765"><ele>597.4</ele><time>2026-04-04T22:13:45.000Z</time></trkpt>
        <trkpt lat="28.6569789" lon="105.6547214"><ele>599.29</ele><time>2026-04-04T22:14:01.000Z</time></trkpt>
        <trkpt lat="28.6570727" lon="105.6547686"><ele>600.63</ele><time>2026-04-04T22:14:19.000Z</time></trkpt>
        <trkpt lat="28.6571625" lon="105.6548226"><ele>600.87</ele><time>2026-04-04T22:14:41.000Z</time></trkpt>
        <trkpt lat="28.6572896" lon="105.6549025"><ele>601.4</ele><time>2026-04-04T22:15:35.000Z</time></trkpt>
        <trkpt lat="28.6573962" lon="105.6549531"><ele>602.52</ele><time>2026-04-04T22:16:05.000Z</time></trkpt>
        <trkpt lat="28.6574867" lon="105.6549946"><ele>605.31</ele><time>2026-04-04T22:16:25.000Z</time></trkpt>
        <trkpt lat="28.6575475" lon="105.6550659"><ele>608.57</ele><time>2026-04-04T22:16:49.000Z</time></trkpt>
        <trkpt lat="28.6576221" lon="105.6551176"><ele>611.04</ele><time>2026-04-04T22:17:27.000Z</time></trkpt>
        <trkpt lat="28.6576737" lon="105.6550556"><ele>612.1</ele><time>2026-04-04T22:17:55.000Z</time></trkpt>
        <trkpt lat="28.6577411" lon="105.6549701"><ele>613.99</ele><time>2026-04-04T22:18:19.000Z</time></trkpt>
        <trkpt lat="28.65784" lon="105.6549433"><ele>614.81</ele><time>2026-04-04T22:21:20.000Z</time></trkpt>
        <trkpt lat="28.6579283" lon="105.6549933"><ele>617.39</ele><time>2026-04-04T22:21:40.000Z</time></trkpt>
        <trkpt lat="28.6579687" lon="105.6550913"><ele>618.98</ele><time>2026-04-04T22:21:50.000Z</time></trkpt>
        <trkpt lat="28.6580418" lon="105.6551874"><ele>619.55</ele><time>2026-04-04T22:22:16.000Z</time></trkpt>
        <trkpt lat="28.6581298" lon="105.655218"><ele>620.39</ele><time>2026-04-04T22:22:36.000Z</time></trkpt>
        <trkpt lat="28.6582204" lon="105.6552358"><ele>620.35</ele><time>2026-04-04T22:23:01.000Z</time></trkpt>
        <trkpt lat="28.6583467" lon="105.6551667"><ele>622.65</ele><time>2026-04-04T22:25:07.000Z</time></trkpt>
        <trkpt lat="28.6584433" lon="105.6551617"><ele>623.4</ele><time>2026-04-04T22:25:31.000Z</time></trkpt>
        <trkpt lat="28.6585273" lon="105.6551073"><ele>622.2</ele><time>2026-04-04T22:25:55.000Z</time></trkpt>
        <trkpt lat="28.658618" lon="105.6550867"><ele>620.44</ele><time>2026-04-04T22:26:07.000Z</time></trkpt>
        <trkpt lat="28.6587133" lon="105.6551064"><ele>619</ele><time>2026-04-04T22:26:29.000Z</time></trkpt>
        <trkpt lat="28.6587214" lon="105.6551979"><ele>618.18</ele><time>2026-04-04T22:26:49.000Z</time></trkpt>
        <trkpt lat="28.6587073" lon="105.6553133"><ele>618.71</ele><time>2026-04-04T22:27:01.000Z</time></trkpt>
        <trkpt lat="28.6587522" lon="105.6553984"><ele>619.69</ele><time>2026-04-04T22:27:27.000Z</time></trkpt>
        <trkpt lat="28.6588388" lon="105.6554383"><ele>620.94</ele><time>2026-04-04T22:27:37.000Z</time></trkpt>
        <trkpt lat="28.658928" lon="105.6554873"><ele>621.27</ele><time>2026-04-04T22:27:57.000Z</time></trkpt>
        <trkpt lat="28.6590014" lon="105.6555557"><ele>622.79</ele><time>2026-04-04T22:28:11.000Z</time></trkpt>
        <trkpt lat="28.6590911" lon="105.6556106"><ele>625.29</ele><time>2026-04-04T22:28:49.000Z</time></trkpt>
        <trkpt lat="28.6591805" lon="105.6556535"><ele>626.37</ele><time>2026-04-04T22:29:11.000Z</time></trkpt>
        <trkpt lat="28.659225" lon="105.6555884"><ele>627.5</ele><time>2026-04-04T22:29:29.000Z</time></trkpt>
        <trkpt lat="28.6592667" lon="105.655465"><ele>629.95</ele><time>2026-04-04T22:37:47.000Z</time></trkpt>
        <trkpt lat="28.6593583" lon="105.6555117"><ele>637.46</ele><time>2026-04-04T22:38:27.000Z</time></trkpt>
        <trkpt lat="28.65945" lon="105.6555132"><ele>642.47</ele><time>2026-04-04T22:38:45.000Z</time></trkpt>
        <trkpt lat="28.6595391" lon="105.6555363"><ele>645.79</ele><time>2026-04-04T22:39:05.000Z</time></trkpt>
        <trkpt lat="28.6596311" lon="105.655556"><ele>648.94</ele><time>2026-04-04T22:39:25.000Z</time></trkpt>
        <trkpt lat="28.6597256" lon="105.6555755"><ele>652.92</ele><time>2026-04-04T22:39:45.000Z</time></trkpt>
        <trkpt lat="28.6598167" lon="105.65556"><ele>657.56</ele><time>2026-04-04T22:46:30.000Z</time></trkpt>
        <trkpt lat="28.6598583" lon="105.6556533"><ele>661.45</ele><time>2026-04-04T22:46:46.000Z</time></trkpt>
        <trkpt lat="28.6599042" lon="105.6557424"><ele>663.45</ele><time>2026-04-04T22:46:58.000Z</time></trkpt>
        <trkpt lat="28.6599917" lon="105.6557967"><ele>664.29</ele><time>2026-04-04T22:48:32.000Z</time></trkpt>
        <trkpt lat="28.6600733" lon="105.6558633"><ele>664.98</ele><time>2026-04-04T22:48:46.000Z</time></trkpt>
        <trkpt lat="28.6601536" lon="105.6559187"><ele>665.38</ele><time>2026-04-04T22:49:00.000Z</time></trkpt>
        <trkpt lat="28.6602323" lon="105.6559747"><ele>665.34</ele><time>2026-04-04T22:49:14.000Z</time></trkpt>
        <trkpt lat="28.6603181" lon="105.6560132"><ele>665.02</ele><time>2026-04-04T22:49:28.000Z</time></trkpt>
        <trkpt lat="28.6604127" lon="105.6560156"><ele>664.93</ele><time>2026-04-04T22:49:42.000Z</time></trkpt>
        <trkpt lat="28.6605027" lon="105.656062"><ele>665.3</ele><time>2026-04-04T22:49:56.000Z</time></trkpt>
        <trkpt lat="28.6605917" lon="105.6560946"><ele>666.98</ele><time>2026-04-04T22:50:12.000Z</time></trkpt>
        <trkpt lat="28.6606839" lon="105.6560897"><ele>669.44</ele><time>2026-04-04T22:50:28.000Z</time></trkpt>
        <trkpt lat="28.6607786" lon="105.6561102"><ele>671.32</ele><time>2026-04-04T22:50:42.000Z</time></trkpt>
        <trkpt lat="28.660859" lon="105.6561609"><ele>672</ele><time>2026-04-04T22:50:58.000Z</time></trkpt>
        <trkpt lat="28.6609427" lon="105.6562099"><ele>672.13</ele><time>2026-04-04T22:51:16.000Z</time></trkpt>
        <trkpt lat="28.6610283" lon="105.6562501"><ele>672.55</ele><time>2026-04-04T22:51:34.000Z</time></trkpt>
        <trkpt lat="28.6611184" lon="105.6562814"><ele>673.82</ele><time>2026-04-04T22:51:54.000Z</time></trkpt>
        <trkpt lat="28.6612003" lon="105.6563307"><ele>675.19</ele><time>2026-04-04T22:52:16.000Z</time></trkpt>
        <trkpt lat="28.6612876" lon="105.6563545"><ele>676.7</ele><time>2026-04-04T22:52:32.000Z</time></trkpt>
        <trkpt lat="28.6613734" lon="105.6563845"><ele>678.72</ele><time>2026-04-04T22:52:46.000Z</time></trkpt>
        <trkpt lat="28.6614623" lon="105.6563966"><ele>681.03</ele><time>2026-04-04T22:53:00.000Z</time></trkpt>
        <trkpt lat="28.6615549" lon="105.6564311"><ele>682.57</ele><time>2026-04-04T22:53:14.000Z</time></trkpt>
        <trkpt lat="28.6616449" lon="105.6564623"><ele>684.22</ele><time>2026-04-04T22:53:32.000Z</time></trkpt>
        <trkpt lat="28.6617462" lon="105.6564654"><ele>687.18</ele><time>2026-04-04T22:53:56.000Z</time></trkpt>
        <trkpt lat="28.6618404" lon="105.6564531"><ele>692.87</ele><time>2026-04-04T22:54:08.000Z</time></trkpt>
        <trkpt lat="28.6619375" lon="105.6564403"><ele>696.49</ele><time>2026-04-04T22:54:24.000Z</time></trkpt>
        <trkpt lat="28.6620333" lon="105.6564202"><ele>698.82</ele><time>2026-04-04T22:54:42.000Z</time></trkpt>
        <trkpt lat="28.6621962" lon="105.6563921"><ele>700.02</ele><time>2026-04-04T22:55:40.000Z</time></trkpt>
        <trkpt lat="28.6623171" lon="105.6564158"><ele>703.02</ele><time>2026-04-04T22:55:54.000Z</time></trkpt>
        <trkpt lat="28.6624115" lon="105.6564517"><ele>705.42</ele><time>2026-04-04T22:56:06.000Z</time></trkpt>
        <trkpt lat="28.6625017" lon="105.6564635"><ele>707.18</ele><time>2026-04-04T22:56:22.000Z</time></trkpt>
        <trkpt lat="28.6625919" lon="105.656472"><ele>708.22</ele><time>2026-04-04T22:56:34.000Z</time></trkpt>
        <trkpt lat="28.6626869" lon="105.6564534"><ele>709.54</ele><time>2026-04-04T22:56:54.000Z</time></trkpt>
        <trkpt lat="28.6627768" lon="105.6564214"><ele>711.42</ele><time>2026-04-04T22:57:06.000Z</time></trkpt>
        <trkpt lat="28.6628662" lon="105.6563887"><ele>713.26</ele><time>2026-04-04T22:57:20.000Z</time></trkpt>
        <trkpt lat="28.6629606" lon="105.6563374"><ele>714.91</ele><time>2026-04-04T22:57:40.000Z</time></trkpt>
        <trkpt lat="28.6630546" lon="105.6563064"><ele>716.41</ele><time>2026-04-04T22:57:54.000Z</time></trkpt>
        <trkpt lat="28.6631582" lon="105.6563257"><ele>717.87</ele><time>2026-04-04T22:58:38.000Z</time></trkpt>
        <trkpt lat="28.6632554" lon="105.6562841"><ele>718.1</ele><time>2026-04-04T22:58:46.000Z</time></trkpt>
        <trkpt lat="28.6633482" lon="105.65628"><ele>717.8</ele><time>2026-04-04T22:58:54.000Z</time></trkpt>
        <trkpt lat="28.6634484" lon="105.6562613"><ele>718.1</ele><time>2026-04-04T22:59:04.000Z</time></trkpt>
        <trkpt lat="28.6635428" lon="105.6562399"><ele>718.62</ele><time>2026-04-04T22:59:22.000Z</time></trkpt>
        <trkpt lat="28.663636" lon="105.6562403"><ele>720.29</ele><time>2026-04-04T22:59:30.000Z</time></trkpt>
        <trkpt lat="28.6637414" lon="105.6562401"><ele>720.89</ele><time>2026-04-04T22:59:38.000Z</time></trkpt>
        <trkpt lat="28.6638453" lon="105.6562325"><ele>720.77</ele><time>2026-04-04T22:59:46.000Z</time></trkpt>
        <trkpt lat="28.6639004" lon="105.656209"><ele>720.82</ele><time>2026-04-04T22:59:56.000Z</time></trkpt>
        <trkpt lat="28.66398" lon="105.656165"><ele>722.06</ele><time>2026-04-04T23:03:27.000Z</time></trkpt>
        <trkpt lat="28.664055" lon="105.6562333"><ele>724.92</ele><time>2026-04-04T23:03:39.000Z</time></trkpt>
        <trkpt lat="28.6641187" lon="105.6563101"><ele>726.54</ele><time>2026-04-04T23:03:51.000Z</time></trkpt>
        <trkpt lat="28.6641946" lon="105.6563833"><ele>727.64</ele><time>2026-04-04T23:04:05.000Z</time></trkpt>
        <trkpt lat="28.6642516" lon="105.6564691"><ele>728.7</ele><time>2026-04-04T23:04:21.000Z</time></trkpt>
        <trkpt lat="28.6643092" lon="105.6565595"><ele>730.33</ele><time>2026-04-04T23:04:33.000Z</time></trkpt>
        <trkpt lat="28.664379" lon="105.656656"><ele>732.3</ele><time>2026-04-04T23:04:43.000Z</time></trkpt>
        <trkpt lat="28.6644624" lon="105.6567252"><ele>733.8</ele><time>2026-04-04T23:04:55.000Z</time></trkpt>
        <trkpt lat="28.6645616" lon="105.6567575"><ele>734.71</ele><time>2026-04-04T23:05:07.000Z</time></trkpt>
        <trkpt lat="28.6646343" lon="105.6566936"><ele>734.88</ele><time>2026-04-04T23:05:17.000Z</time></trkpt>
        <trkpt lat="28.6646884" lon="105.6565971"><ele>734.84</ele><time>2026-04-04T23:05:29.000Z</time></trkpt>
        <trkpt lat="28.6646927" lon="105.6564829"><ele>735.51</ele><time>2026-04-04T23:05:43.000Z</time></trkpt>
        <trkpt lat="28.6647239" lon="105.6563638"><ele>736.93</ele><time>2026-04-04T23:06:01.000Z</time></trkpt>
        <trkpt lat="28.6647108" lon="105.6562554"><ele>738.16</ele><time>2026-04-04T23:06:13.000Z</time></trkpt>
        <trkpt lat="28.6646945" lon="105.6561357"><ele>737.92</ele><time>2026-04-04T23:06:27.000Z</time></trkpt>
        <trkpt lat="28.6646771" lon="105.6560213"><ele>738.08</ele><time>2026-04-04T23:06:35.000Z</time></trkpt>
        <trkpt lat="28.6646445" lon="105.6559173"><ele>739.47</ele><time>2026-04-04T23:06:45.000Z</time></trkpt>
        <trkpt lat="28.6645585" lon="105.655851"><ele>741.5</ele><time>2026-04-04T23:06:55.000Z</time></trkpt>
        <trkpt lat="28.6645031" lon="105.6558733"><ele>742.75</ele><time>2026-04-04T23:07:09.000Z</time></trkpt>
        <trkpt lat="28.6644788" lon="105.6558029"><ele>742.3</ele><time>2026-04-04T23:07:21.000Z</time></trkpt>
        <trkpt lat="28.6644498" lon="105.6557088"><ele>741.01</ele><time>2026-04-04T23:07:31.000Z</time></trkpt>
        <trkpt lat="28.6644" lon="105.6555991"><ele>740.27</ele><time>2026-04-04T23:07:41.000Z</time></trkpt>
        <trkpt lat="28.6643721" lon="105.6554798"><ele>741.1</ele><time>2026-04-04T23:07:51.000Z</time></trkpt>
        <trkpt lat="28.6643868" lon="105.6553515"><ele>741.57</ele><time>2026-04-04T23:08:01.000Z</time></trkpt>
        <trkpt lat="28.664395" lon="105.6552366"><ele>741.63</ele><time>2026-04-04T23:08:11.000Z</time></trkpt>
        <trkpt lat="28.6644119" lon="105.6551279"><ele>741.96</ele><time>2026-04-04T23:08:21.000Z</time></trkpt>
        <trkpt lat="28.6644397" lon="105.6550215"><ele>741.81</ele><time>2026-04-04T23:08:31.000Z</time></trkpt>
        <trkpt lat="28.6644215" lon="105.6549118"><ele>741.16</ele><time>2026-04-04T23:08:49.000Z</time></trkpt>
        <trkpt lat="28.664448" lon="105.6548143"><ele>740.01</ele><time>2026-04-04T23:08:59.000Z</time></trkpt>
        <trkpt lat="28.6644802" lon="105.6547151"><ele>738.59</ele><time>2026-04-04T23:09:11.000Z</time></trkpt>
        <trkpt lat="28.6645443" lon="105.6546284"><ele>737.13</ele><time>2026-04-04T23:09:33.000Z</time></trkpt>
        <trkpt lat="28.6646153" lon="105.6545485"><ele>735.1</ele><time>2026-04-04T23:09:47.000Z</time></trkpt>
        <trkpt lat="28.6647102" lon="105.6545078"><ele>733.42</ele><time>2026-04-04T23:09:57.000Z</time></trkpt>
        <trkpt lat="28.6648136" lon="105.6544881"><ele>731.99</ele><time>2026-04-04T23:10:07.000Z</time></trkpt>
        <trkpt lat="28.6648753" lon="105.6544485"><ele>731.22</ele><time>2026-04-04T23:10:21.000Z</time></trkpt>
        <trkpt lat="28.664865" lon="105.6543565"><ele>730.48</ele><time>2026-04-04T23:10:55.000Z</time></trkpt>
        <trkpt lat="28.66487" lon="105.6542427"><ele>730.32</ele><time>2026-04-04T23:11:17.000Z</time></trkpt>
        <trkpt lat="28.6648176" lon="105.6541561"><ele>730.18</ele><time>2026-04-04T23:11:29.000Z</time></trkpt>
        <trkpt lat="28.6647973" lon="105.6540496"><ele>730.15</ele><time>2026-04-04T23:11:45.000Z</time></trkpt>
        <trkpt lat="28.6647351" lon="105.6539746"><ele>730.04</ele><time>2026-04-04T23:12:01.000Z</time></trkpt>
        <trkpt lat="28.6647556" lon="105.6538896"><ele>729.72</ele><time>2026-04-04T23:12:35.000Z</time></trkpt>
        <trkpt lat="28.6647888" lon="105.6539425"><ele>728.81</ele><time>2026-04-04T23:13:15.000Z</time></trkpt>
        <trkpt lat="28.6648435" lon="105.6540331"><ele>728.29</ele><time>2026-04-04T23:13:27.000Z</time></trkpt>
        <trkpt lat="28.66494" lon="105.6540737"><ele>728.34</ele><time>2026-04-04T23:13:45.000Z</time></trkpt>
        <trkpt lat="28.6649629" lon="105.65417"><ele>728.23</ele><time>2026-04-04T23:14:25.000Z</time></trkpt>
        <trkpt lat="28.6648964" lon="105.6542223"><ele>729.04</ele><time>2026-04-04T23:14:41.000Z</time></trkpt>
        <trkpt lat="28.664857" lon="105.6543115"><ele>728.85</ele><time>2026-04-04T23:14:57.000Z</time></trkpt>
        <trkpt lat="28.6648974" lon="105.6543874"><ele>728.61</ele><time>2026-04-04T23:15:39.000Z</time></trkpt>
        <trkpt lat="28.6649737" lon="105.6543565"><ele>729.04</ele><time>2026-04-04T23:15:53.000Z</time></trkpt>
        <trkpt lat="28.6650772" lon="105.6543115"><ele>729.41</ele><time>2026-04-04T23:16:05.000Z</time></trkpt>
        <trkpt lat="28.6651792" lon="105.6543072"><ele>729.36</ele><time>2026-04-04T23:16:15.000Z</time></trkpt>
        <trkpt lat="28.6652773" lon="105.6542689"><ele>729.08</ele><time>2026-04-04T23:16:27.000Z</time></trkpt>
        <trkpt lat="28.6653671" lon="105.6542081"><ele>728.66</ele><time>2026-04-04T23:16:37.000Z</time></trkpt>
        <trkpt lat="28.6654544" lon="105.6541458"><ele>728.2</ele><time>2026-04-04T23:16:47.000Z</time></trkpt>
        <trkpt lat="28.665512" lon="105.65405"><ele>727</ele><time>2026-04-04T23:16:57.000Z</time></trkpt>
        <trkpt lat="28.6655202" lon="105.653932"><ele>726.31</ele><time>2026-04-04T23:17:07.000Z</time></trkpt>
        <trkpt lat="28.6655033" lon="105.6538058"><ele>726.99</ele><time>2026-04-04T23:17:19.000Z</time></trkpt>
        <trkpt lat="28.6654682" lon="105.653683"><ele>727.51</ele><time>2026-04-04T23:17:29.000Z</time></trkpt>
        <trkpt lat="28.6654361" lon="105.6535682"><ele>727.68</ele><time>2026-04-04T23:17:39.000Z</time></trkpt>
        <trkpt lat="28.6653979" lon="105.6534595"><ele>728.2</ele><time>2026-04-04T23:17:49.000Z</time></trkpt>
        <trkpt lat="28.6653311" lon="105.6533769"><ele>728.76</ele><time>2026-04-04T23:17:59.000Z</time></trkpt>
        <trkpt lat="28.6652461" lon="105.6533047"><ele>728.86</ele><time>2026-04-04T23:18:09.000Z</time></trkpt>
        <trkpt lat="28.6651466" lon="105.6532547"><ele>728.88</ele><time>2026-04-04T23:18:21.000Z</time></trkpt>
        <trkpt lat="28.6650752" lon="105.6531739"><ele>728.59</ele><time>2026-04-04T23:18:31.000Z</time></trkpt>
        <trkpt lat="28.6650786" lon="105.6530735"><ele>727.22</ele><time>2026-04-04T23:18:41.000Z</time></trkpt>
        <trkpt lat="28.6651163" lon="105.6529717"><ele>726.05</ele><time>2026-04-04T23:18:51.000Z</time></trkpt>
        <trkpt lat="28.6651809" lon="105.6528669"><ele>725.21</ele><time>2026-04-04T23:19:03.000Z</time></trkpt>
        <trkpt lat="28.66524" lon="105.6527708"><ele>723.57</ele><time>2026-04-04T23:19:11.000Z</time></trkpt>
        <trkpt lat="28.6652845" lon="105.6526733"><ele>722.08</ele><time>2026-04-04T23:19:19.000Z</time></trkpt>
        <trkpt lat="28.6653295" lon="105.6526015"><ele>721.18</ele><time>2026-04-04T23:19:35.000Z</time></trkpt>
        <trkpt lat="28.665405" lon="105.65251"><ele>721.49</ele><time>2026-04-04T23:20:43.000Z</time></trkpt>
        <trkpt lat="28.6654733" lon="105.6524233"><ele>722.18</ele><time>2026-04-04T23:20:53.000Z</time></trkpt>
        <trkpt lat="28.6655304" lon="105.6523268"><ele>721.63</ele><time>2026-04-04T23:21:01.000Z</time></trkpt>
        <trkpt lat="28.6656086" lon="105.6522555"><ele>721.1</ele><time>2026-04-04T23:21:11.000Z</time></trkpt>
        <trkpt lat="28.6657021" lon="105.6522109"><ele>721.62</ele><time>2026-04-04T23:21:21.000Z</time></trkpt>
        <trkpt lat="28.6657907" lon="105.6521615"><ele>722.3</ele><time>2026-04-04T23:21:29.000Z</time></trkpt>
        <trkpt lat="28.6658575" lon="105.6520797"><ele>722.82</ele><time>2026-04-04T23:21:39.000Z</time></trkpt>
        <trkpt lat="28.6658883" lon="105.6519739"><ele>722.89</ele><time>2026-04-04T23:21:55.000Z</time></trkpt>
        <trkpt lat="28.665907" lon="105.6518568"><ele>722.17</ele><time>2026-04-04T23:22:07.000Z</time></trkpt>
        <trkpt lat="28.6659187" lon="105.6517327"><ele>720.55</ele><time>2026-04-04T23:22:17.000Z</time></trkpt>
        <trkpt lat="28.665891" lon="105.6516215"><ele>718.46</ele><time>2026-04-04T23:22:25.000Z</time></trkpt>
        <trkpt lat="28.6658353" lon="105.65153"><ele>717.19</ele><time>2026-04-04T23:22:35.000Z</time></trkpt>
        <trkpt lat="28.6657517" lon="105.6514633"><ele>717.84</ele><time>2026-04-04T23:30:37.000Z</time></trkpt>
        <trkpt lat="28.6656817" lon="105.65138"><ele>718.77</ele><time>2026-04-04T23:30:49.000Z</time></trkpt>
        <trkpt lat="28.6656497" lon="105.6512826"><ele>719.38</ele><time>2026-04-04T23:31:01.000Z</time></trkpt>
        <trkpt lat="28.6656258" lon="105.6511749"><ele>719.39</ele><time>2026-04-04T23:31:15.000Z</time></trkpt>
        <trkpt lat="28.6655921" lon="105.6510728"><ele>718.58</ele><time>2026-04-04T23:31:27.000Z</time></trkpt>
        <trkpt lat="28.6655528" lon="105.6509569"><ele>716.87</ele><time>2026-04-04T23:31:39.000Z</time></trkpt>
        <trkpt lat="28.6654976" lon="105.6508648"><ele>714.77</ele><time>2026-04-04T23:31:47.000Z</time></trkpt>
        <trkpt lat="28.6654292" lon="105.6507887"><ele>713.97</ele><time>2026-04-04T23:31:57.000Z</time></trkpt>
        <trkpt lat="28.6653707" lon="105.6507087"><ele>713.38</ele><time>2026-04-04T23:32:07.000Z</time></trkpt>
        <trkpt lat="28.6653033" lon="105.6506235"><ele>712.48</ele><time>2026-04-04T23:32:17.000Z</time></trkpt>
        <trkpt lat="28.6652391" lon="105.6505459"><ele>711.8</ele><time>2026-04-04T23:32:27.000Z</time></trkpt>
        <trkpt lat="28.665159" lon="105.6504724"><ele>710.98</ele><time>2026-04-04T23:32:37.000Z</time></trkpt>
        <trkpt lat="28.6650719" lon="105.6504137"><ele>710.73</ele><time>2026-04-04T23:32:47.000Z</time></trkpt>
        <trkpt lat="28.6649858" lon="105.6503487"><ele>710.29</ele><time>2026-04-04T23:32:57.000Z</time></trkpt>
        <trkpt lat="28.6649135" lon="105.6502729"><ele>709.43</ele><time>2026-04-04T23:33:07.000Z</time></trkpt>
        <trkpt lat="28.664849" lon="105.6501967"><ele>708.13</ele><time>2026-04-04T23:33:19.000Z</time></trkpt>
        <trkpt lat="28.6647957" lon="105.6501095"><ele>707.43</ele><time>2026-04-04T23:33:29.000Z</time></trkpt>
        <trkpt lat="28.664742" lon="105.6500099"><ele>706.86</ele><time>2026-04-04T23:33:39.000Z</time></trkpt>
        <trkpt lat="28.6647109" lon="105.6499051"><ele>707.05</ele><time>2026-04-04T23:33:49.000Z</time></trkpt>
        <trkpt lat="28.6646788" lon="105.6497909"><ele>707.37</ele><time>2026-04-04T23:34:01.000Z</time></trkpt>
        <trkpt lat="28.6646211" lon="105.649684"><ele>708.16</ele><time>2026-04-04T23:34:11.000Z</time></trkpt>
        <trkpt lat="28.6645495" lon="105.6495958"><ele>708.82</ele><time>2026-04-04T23:34:21.000Z</time></trkpt>
        <trkpt lat="28.6645064" lon="105.6494971"><ele>708.47</ele><time>2026-04-04T23:34:31.000Z</time></trkpt>
        <trkpt lat="28.6645313" lon="105.6493922"><ele>708.27</ele><time>2026-04-04T23:34:41.000Z</time></trkpt>
        <trkpt lat="28.6645352" lon="105.6492827"><ele>707.81</ele><time>2026-04-04T23:34:49.000Z</time></trkpt>
        <trkpt lat="28.6645309" lon="105.6491744"><ele>707.59</ele><time>2026-04-04T23:34:59.000Z</time></trkpt>
        <trkpt lat="28.6645314" lon="105.649231"><ele>707.94</ele><time>2026-04-04T23:35:23.000Z</time></trkpt>
        <trkpt lat="28.6644683" lon="105.6492253"><ele>708.18</ele><time>2026-04-04T23:35:37.000Z</time></trkpt>
        <trkpt lat="28.6643717" lon="105.6491816"><ele>708.06</ele><time>2026-04-04T23:35:47.000Z</time></trkpt>
        <trkpt lat="28.6642812" lon="105.6491265"><ele>706.92</ele><time>2026-04-04T23:35:57.000Z</time></trkpt>
        <trkpt lat="28.6642265" lon="105.649031"><ele>706.01</ele><time>2026-04-04T23:36:07.000Z</time></trkpt>
        <trkpt lat="28.6642141" lon="105.6489234"><ele>704.15</ele><time>2026-04-04T23:36:15.000Z</time></trkpt>
        <trkpt lat="28.6642147" lon="105.6488068"><ele>702.32</ele><time>2026-04-04T23:36:25.000Z</time></trkpt>
        <trkpt lat="28.6642084" lon="105.6486891"><ele>700.89</ele><time>2026-04-04T23:36:35.000Z</time></trkpt>
        <trkpt lat="28.664201" lon="105.6485626"><ele>699.69</ele><time>2026-04-04T23:36:45.000Z</time></trkpt>
        <trkpt lat="28.6642038" lon="105.6484414"><ele>698.84</ele><time>2026-04-04T23:36:55.000Z</time></trkpt>
        <trkpt lat="28.6642061" lon="105.6483181"><ele>697.44</ele><time>2026-04-04T23:37:03.000Z</time></trkpt>
        <trkpt lat="28.6642175" lon="105.6481993"><ele>695.96</ele><time>2026-04-04T23:37:13.000Z</time></trkpt>
        <trkpt lat="28.6642168" lon="105.6480848"><ele>694.34</ele><time>2026-04-04T23:37:23.000Z</time></trkpt>
        <trkpt lat="28.6642185" lon="105.6479794"><ele>692.17</ele><time>2026-04-04T23:37:33.000Z</time></trkpt>
        <trkpt lat="28.6642076" lon="105.6478694"><ele>690.29</ele><time>2026-04-04T23:37:45.000Z</time></trkpt>
        <trkpt lat="28.6642134" lon="105.6477659"><ele>688.62</ele><time>2026-04-04T23:37:55.000Z</time></trkpt>
        <trkpt lat="28.6642435" lon="105.6476533"><ele>686.8</ele><time>2026-04-04T23:38:05.000Z</time></trkpt>
        <trkpt lat="28.6642708" lon="105.6475459"><ele>685.86</ele><time>2026-04-04T23:38:15.000Z</time></trkpt>
        <trkpt lat="28.6643179" lon="105.6474468"><ele>685.27</ele><time>2026-04-04T23:38:25.000Z</time></trkpt>
        <trkpt lat="28.6643828" lon="105.6473594"><ele>685.28</ele><time>2026-04-04T23:38:35.000Z</time></trkpt>
        <trkpt lat="28.6644277" lon="105.6472558"><ele>685.33</ele><time>2026-04-04T23:38:47.000Z</time></trkpt>
        <trkpt lat="28.6645111" lon="105.6471841"><ele>684.85</ele><time>2026-04-04T23:38:57.000Z</time></trkpt>
        <trkpt lat="28.6645925" lon="105.6471207"><ele>684.35</ele><time>2026-04-04T23:39:07.000Z</time></trkpt>
        <trkpt lat="28.6646874" lon="105.6470675"><ele>684.16</ele><time>2026-04-04T23:39:17.000Z</time></trkpt>
        <trkpt lat="28.6647914" lon="105.6470169"><ele>683.92</ele><time>2026-04-04T23:39:27.000Z</time></trkpt>
        <trkpt lat="28.6648522" lon="105.6470473"><ele>683.35</ele><time>2026-04-04T23:39:41.000Z</time></trkpt>
        <trkpt lat="28.6648812" lon="105.6471516"><ele>683.8</ele><time>2026-04-04T23:40:03.000Z</time></trkpt>
        <trkpt lat="28.6648977" lon="105.6472693"><ele>685.31</ele><time>2026-04-04T23:40:11.000Z</time></trkpt>
        <trkpt lat="28.6648798" lon="105.6473878"><ele>686.42</ele><time>2026-04-04T23:40:25.000Z</time></trkpt>
        <trkpt lat="28.6648727" lon="105.6475085"><ele>685.72</ele><time>2026-04-04T23:40:39.000Z</time></trkpt>
        <trkpt lat="28.6648951" lon="105.6476228"><ele>683.82</ele><time>2026-04-04T23:40:49.000Z</time></trkpt>
        <trkpt lat="28.6649418" lon="105.6477297"><ele>681.92</ele><time>2026-04-04T23:40:59.000Z</time></trkpt>
        <trkpt lat="28.6650126" lon="105.6478134"><ele>680.62</ele><time>2026-04-04T23:41:11.000Z</time></trkpt>
        <trkpt lat="28.665104" lon="105.6478575"><ele>677.9</ele><time>2026-04-04T23:41:21.000Z</time></trkpt>
        <trkpt lat="28.6651994" lon="105.6478598"><ele>675.62</ele><time>2026-04-04T23:41:29.000Z</time></trkpt>
        <trkpt lat="28.6653089" lon="105.647841"><ele>674.58</ele><time>2026-04-04T23:41:39.000Z</time></trkpt>
        <trkpt lat="28.6654184" lon="105.647842"><ele>674.46</ele><time>2026-04-04T23:41:49.000Z</time></trkpt>
        <trkpt lat="28.66552" lon="105.6478597"><ele>675.85</ele><time>2026-04-04T23:41:59.000Z</time></trkpt>
        <trkpt lat="28.6656216" lon="105.6478642"><ele>678.76</ele><time>2026-04-04T23:42:11.000Z</time></trkpt>
        <trkpt lat="28.6657133" lon="105.6478832"><ele>681.31</ele><time>2026-04-04T23:42:25.000Z</time></trkpt>
        <trkpt lat="28.6658088" lon="105.6479154"><ele>682.6</ele><time>2026-04-04T23:42:35.000Z</time></trkpt>
        <trkpt lat="28.6658762" lon="105.648007"><ele>682.51</ele><time>2026-04-04T23:43:05.000Z</time></trkpt>
        <trkpt lat="28.6659597" lon="105.6480404"><ele>680.27</ele><time>2026-04-04T23:43:17.000Z</time></trkpt>
        <trkpt lat="28.6660407" lon="105.6481026"><ele>677.62</ele><time>2026-04-04T23:43:33.000Z</time></trkpt>
        <trkpt lat="28.6661345" lon="105.6481501"><ele>674.6</ele><time>2026-04-04T23:43:49.000Z</time></trkpt>
        <trkpt lat="28.6662155" lon="105.6482126"><ele>670.47</ele><time>2026-04-04T23:44:01.000Z</time></trkpt>
        <trkpt lat="28.666295" lon="105.6482822"><ele>666.61</ele><time>2026-04-04T23:44:11.000Z</time></trkpt>
        <trkpt lat="28.666383" lon="105.6483349"><ele>662.99</ele><time>2026-04-04T23:44:21.000Z</time></trkpt>
        <trkpt lat="28.6664607" lon="105.648417"><ele>660.37</ele><time>2026-04-04T23:44:33.000Z</time></trkpt>
        <trkpt lat="28.6665143" lon="105.6485066"><ele>657.98</ele><time>2026-04-04T23:44:51.000Z</time></trkpt>
        <trkpt lat="28.6665794" lon="105.6485826"><ele>654.72</ele><time>2026-04-04T23:45:01.000Z</time></trkpt>
        <trkpt lat="28.6666566" lon="105.6486337"><ele>652.64</ele><time>2026-04-04T23:45:19.000Z</time></trkpt>
        <trkpt lat="28.6667296" lon="105.648701"><ele>652.63</ele><time>2026-04-04T23:45:47.000Z</time></trkpt>
        <trkpt lat="28.6668205" lon="105.6487442"><ele>647.93</ele><time>2026-04-04T23:45:57.000Z</time></trkpt>
        <trkpt lat="28.6669179" lon="105.6487799"><ele>646.41</ele><time>2026-04-04T23:46:07.000Z</time></trkpt>
        <trkpt lat="28.6670117" lon="105.648824"><ele>646.53</ele><time>2026-04-04T23:46:17.000Z</time></trkpt>
        <trkpt lat="28.6671044" lon="105.6488448"><ele>646.69</ele><time>2026-04-04T23:46:25.000Z</time></trkpt>
        <trkpt lat="28.6671978" lon="105.6488283"><ele>647.08</ele><time>2026-04-04T23:46:37.000Z</time></trkpt>
        <trkpt lat="28.6672688" lon="105.6488747"><ele>646.79</ele><time>2026-04-04T23:47:05.000Z</time></trkpt>
        <trkpt lat="28.667334" lon="105.6489493"><ele>647.05</ele><time>2026-04-04T23:47:23.000Z</time></trkpt>
        <trkpt lat="28.6674134" lon="105.6490122"><ele>647.16</ele><time>2026-04-04T23:47:37.000Z</time></trkpt>
        <trkpt lat="28.6675025" lon="105.6490432"><ele>646.49</ele><time>2026-04-04T23:47:51.000Z</time></trkpt>
        <trkpt lat="28.6676" lon="105.6490593"><ele>645.37</ele><time>2026-04-04T23:48:11.000Z</time></trkpt>
        <trkpt lat="28.6676987" lon="105.6490788"><ele>643.58</ele><time>2026-04-04T23:48:29.000Z</time></trkpt>
        <trkpt lat="28.6677969" lon="105.6490623"><ele>641.7</ele><time>2026-04-04T23:48:41.000Z</time></trkpt>
        <trkpt lat="28.6678807" lon="105.6490996"><ele>639.55</ele><time>2026-04-04T23:48:53.000Z</time></trkpt>
        <trkpt lat="28.6679777" lon="105.6491488"><ele>637.29</ele><time>2026-04-04T23:49:05.000Z</time></trkpt>
        <trkpt lat="28.668064" lon="105.6491707"><ele>635.44</ele><time>2026-04-04T23:49:35.000Z</time></trkpt>
        <trkpt lat="28.6681448" lon="105.6492185"><ele>627.77</ele><time>2026-04-04T23:50:03.000Z</time></trkpt>
        <trkpt lat="28.6682201" lon="105.6492778"><ele>617.8</ele><time>2026-04-04T23:50:37.000Z</time></trkpt>
        <trkpt lat="28.668309" lon="105.6493151"><ele>607.35</ele><time>2026-04-04T23:51:03.000Z</time></trkpt>
        <trkpt lat="28.6684047" lon="105.6493382"><ele>599.03</ele><time>2026-04-04T23:51:29.000Z</time></trkpt>
        <trkpt lat="28.6684911" lon="105.6493842"><ele>592.05</ele><time>2026-04-04T23:51:57.000Z</time></trkpt>
        <trkpt lat="28.6685773" lon="105.6494209"><ele>586.22</ele><time>2026-04-04T23:52:15.000Z</time></trkpt>
        <trkpt lat="28.6686511" lon="105.6493809"><ele>581.65</ele><time>2026-04-04T23:52:39.000Z</time></trkpt>
        <trkpt lat="28.6687355" lon="105.6493718"><ele>575.69</ele><time>2026-04-04T23:53:01.000Z</time></trkpt>
        <trkpt lat="28.6688267" lon="105.6493067"><ele>568.04</ele><time>2026-04-04T23:57:19.000Z</time></trkpt>
        <trkpt lat="28.6689267" lon="105.6492967"><ele>559.94</ele><time>2026-04-04T23:57:37.000Z</time></trkpt>
        <trkpt lat="28.6690112" lon="105.6493332"><ele>554.72</ele><time>2026-04-04T23:57:51.000Z</time></trkpt>
        <trkpt lat="28.6690311" lon="105.6494333"><ele>550.58</ele><time>2026-04-04T23:58:05.000Z</time></trkpt>
        <trkpt lat="28.669056" lon="105.6495372"><ele>547.75</ele><time>2026-04-04T23:58:17.000Z</time></trkpt>
        <trkpt lat="28.6690934" lon="105.6496362"><ele>545.62</ele><time>2026-04-04T23:58:31.000Z</time></trkpt>
        <trkpt lat="28.669161" lon="105.6497084"><ele>543.33</ele><time>2026-04-04T23:58:43.000Z</time></trkpt>
        <trkpt lat="28.6692385" lon="105.6497709"><ele>541.21</ele><time>2026-04-04T23:58:53.000Z</time></trkpt>
        <trkpt lat="28.6693196" lon="105.649837"><ele>539.18</ele><time>2026-04-04T23:59:07.000Z</time></trkpt>
        <trkpt lat="28.6694155" lon="105.6498853"><ele>537.86</ele><time>2026-04-04T23:59:21.000Z</time></trkpt>
        <trkpt lat="28.6694709" lon="105.6499725"><ele>536.46</ele><time>2026-04-04T23:59:33.000Z</time></trkpt>
        <trkpt lat="28.6695228" lon="105.6500588"><ele>535.96</ele><time>2026-04-04T23:59:45.000Z</time></trkpt>
        <trkpt lat="28.6695974" lon="105.6501307"><ele>536.28</ele><time>2026-04-04T23:59:59.000Z</time></trkpt>
        <trkpt lat="28.6696888" lon="105.6501778"><ele>535.69</ele><time>2026-04-05T00:00:13.000Z</time></trkpt>
        <trkpt lat="28.669787" lon="105.6501987"><ele>535.43</ele><time>2026-04-05T00:00:25.000Z</time></trkpt>
        <trkpt lat="28.6698837" lon="105.6502166"><ele>537.44</ele><time>2026-04-05T00:00:37.000Z</time></trkpt>
        <trkpt lat="28.669979" lon="105.6502244"><ele>538.8</ele><time>2026-04-05T00:00:51.000Z</time></trkpt>
        <trkpt lat="28.6700719" lon="105.6502424"><ele>537.98</ele><time>2026-04-05T00:01:05.000Z</time></trkpt>
        <trkpt lat="28.670155" lon="105.6503005"><ele>536.53</ele><time>2026-04-05T00:01:19.000Z</time></trkpt>
        <trkpt lat="28.6702384" lon="105.6503683"><ele>536.26</ele><time>2026-04-05T00:01:33.000Z</time></trkpt>
        <trkpt lat="28.6703174" lon="105.65043"><ele>535.67</ele><time>2026-04-05T00:01:45.000Z</time></trkpt>
        <trkpt lat="28.6704125" lon="105.6504828"><ele>534.91</ele><time>2026-04-05T00:01:57.000Z</time></trkpt>
        <trkpt lat="28.6705015" lon="105.6505344"><ele>533.92</ele><time>2026-04-05T00:02:09.000Z</time></trkpt>
        <trkpt lat="28.6705813" lon="105.6506057"><ele>533.31</ele><time>2026-04-05T00:02:25.000Z</time></trkpt>
        <trkpt lat="28.6706339" lon="105.6506982"><ele>532.14</ele><time>2026-04-05T00:02:37.000Z</time></trkpt>
        <trkpt lat="28.6706783" lon="105.6507999"><ele>531.44</ele><time>2026-04-05T00:02:49.000Z</time></trkpt>
        <trkpt lat="28.670724" lon="105.6509058"><ele>530.47</ele><time>2026-04-05T00:02:59.000Z</time></trkpt>
        <trkpt lat="28.6707552" lon="105.6510118"><ele>529.71</ele><time>2026-04-05T00:03:11.000Z</time></trkpt>
        <trkpt lat="28.6707969" lon="105.6511145"><ele>529.32</ele><time>2026-04-05T00:03:21.000Z</time></trkpt>
        <trkpt lat="28.670846" lon="105.651204"><ele>528.92</ele><time>2026-04-05T00:03:33.000Z</time></trkpt>
        <trkpt lat="28.6708953" lon="105.6512963"><ele>529.21</ele><time>2026-04-05T00:03:47.000Z</time></trkpt>
        <trkpt lat="28.6709481" lon="105.6513926"><ele>528.48</ele><time>2026-04-05T00:03:59.000Z</time></trkpt>
        <trkpt lat="28.6710045" lon="105.6514882"><ele>527.07</ele><time>2026-04-05T00:04:13.000Z</time></trkpt>
        <trkpt lat="28.6710631" lon="105.6515746"><ele>525.02</ele><time>2026-04-05T00:04:29.000Z</time></trkpt>
        <trkpt lat="28.6711309" lon="105.6516527"><ele>522.51</ele><time>2026-04-05T00:04:43.000Z</time></trkpt>
        <trkpt lat="28.6711943" lon="105.6517307"><ele>520.7</ele><time>2026-04-05T00:05:01.000Z</time></trkpt>
        <trkpt lat="28.6712541" lon="105.6518269"><ele>519.07</ele><time>2026-04-05T00:05:17.000Z</time></trkpt>
        <trkpt lat="28.6713076" lon="105.6519289"><ele>517.49</ele><time>2026-04-05T00:05:37.000Z</time></trkpt>
        <trkpt lat="28.6713512" lon="105.6520334"><ele>515.08</ele><time>2026-04-05T00:05:49.000Z</time></trkpt>
        <trkpt lat="28.671393" lon="105.6521307"><ele>512.81</ele><time>2026-04-05T00:06:03.000Z</time></trkpt>
        <trkpt lat="28.6714437" lon="105.6522248"><ele>510.61</ele><time>2026-04-05T00:06:17.000Z</time></trkpt>
        <trkpt lat="28.6714981" lon="105.6523178"><ele>507.98</ele><time>2026-04-05T00:06:37.000Z</time></trkpt>
        <trkpt lat="28.6715461" lon="105.6524094"><ele>505.41</ele><time>2026-04-05T00:06:51.000Z</time></trkpt>
        <trkpt lat="28.671599" lon="105.6525082"><ele>503.08</ele><time>2026-04-05T00:07:03.000Z</time></trkpt>
        <trkpt lat="28.6716413" lon="105.652616"><ele>500.85</ele><time>2026-04-05T00:07:17.000Z</time></trkpt>
        <trkpt lat="28.6717071" lon="105.6526868"><ele>499.02</ele><time>2026-04-05T00:07:27.000Z</time></trkpt>
        <trkpt lat="28.6717958" lon="105.6527209"><ele>498.2</ele><time>2026-04-05T00:07:39.000Z</time></trkpt>
        <trkpt lat="28.671883" lon="105.6527557"><ele>497.9</ele><time>2026-04-05T00:07:53.000Z</time></trkpt>
        <trkpt lat="28.6719467" lon="105.6528263"><ele>497.86</ele><time>2026-04-05T00:08:05.000Z</time></trkpt>
        <trkpt lat="28.6719908" lon="105.6529165"><ele>497.7</ele><time>2026-04-05T00:08:17.000Z</time></trkpt>
        <trkpt lat="28.6720311" lon="105.6530214"><ele>497.4</ele><time>2026-04-05T00:08:29.000Z</time></trkpt>
        <trkpt lat="28.6720665" lon="105.65313"><ele>497.19</ele><time>2026-04-05T00:08:41.000Z</time></trkpt>
        <trkpt lat="28.6721062" lon="105.6532407"><ele>496.98</ele><time>2026-04-05T00:08:53.000Z</time></trkpt>
        <trkpt lat="28.6721645" lon="105.6533374"><ele>496.47</ele><time>2026-04-05T00:09:05.000Z</time></trkpt>
        <trkpt lat="28.6722335" lon="105.6534132"><ele>496.44</ele><time>2026-04-05T00:09:15.000Z</time></trkpt>
        <trkpt lat="28.6723206" lon="105.6534655"><ele>496.59</ele><time>2026-04-05T00:09:27.000Z</time></trkpt>
        <trkpt lat="28.6724144" lon="105.6534992"><ele>497.24</ele><time>2026-04-05T00:09:39.000Z</time></trkpt>
        <trkpt lat="28.6725142" lon="105.653527"><ele>497.53</ele><time>2026-04-05T00:09:55.000Z</time></trkpt>
        <trkpt lat="28.6726049" lon="105.6535659"><ele>496.14</ele><time>2026-04-05T00:10:09.000Z</time></trkpt>
        <trkpt lat="28.6726613" lon="105.6536441"><ele>494.7</ele><time>2026-04-05T00:10:19.000Z</time></trkpt>
        <trkpt lat="28.6726764" lon="105.6537532"><ele>492.94</ele><time>2026-04-05T00:10:31.000Z</time></trkpt>
        <trkpt lat="28.6726456" lon="105.6538588"><ele>491.33</ele><time>2026-04-05T00:10:55.000Z</time></trkpt>
        <trkpt lat="28.6726114" lon="105.6539668"><ele>488.74</ele><time>2026-04-05T00:11:11.000Z</time></trkpt>
        <trkpt lat="28.6726152" lon="105.654083"><ele>485.71</ele><time>2026-04-05T00:11:35.000Z</time></trkpt>
        <trkpt lat="28.6726104" lon="105.6541964"><ele>484.03</ele><time>2026-04-05T00:11:47.000Z</time></trkpt>
        <trkpt lat="28.6725827" lon="105.6543079"><ele>483.41</ele><time>2026-04-05T00:12:01.000Z</time></trkpt>
        <trkpt lat="28.6725744" lon="105.6544197"><ele>484.53</ele><time>2026-04-05T00:12:19.000Z</time></trkpt>
        <trkpt lat="28.6725831" lon="105.654529"><ele>484.17</ele><time>2026-04-05T00:12:39.000Z</time></trkpt>
        <trkpt lat="28.6726015" lon="105.6546486"><ele>482.2</ele><time>2026-04-05T00:12:55.000Z</time></trkpt>
        <trkpt lat="28.6726435" lon="105.6547508"><ele>480.48</ele><time>2026-04-05T00:13:11.000Z</time></trkpt>
        <trkpt lat="28.6727081" lon="105.6548436"><ele>478.64</ele><time>2026-04-05T00:13:23.000Z</time></trkpt>
        <trkpt lat="28.6727916" lon="105.6549174"><ele>476.95</ele><time>2026-04-05T00:13:35.000Z</time></trkpt>
        <trkpt lat="28.6728696" lon="105.6549877"><ele>475.46</ele><time>2026-04-05T00:13:45.000Z</time></trkpt>
        <trkpt lat="28.6729586" lon="105.6550443"><ele>473.93</ele><time>2026-04-05T00:13:57.000Z</time></trkpt>
        <trkpt lat="28.6730531" lon="105.6550833"><ele>472.88</ele><time>2026-04-05T00:14:09.000Z</time></trkpt>
        <trkpt lat="28.6731536" lon="105.6550895"><ele>472.76</ele><time>2026-04-05T00:14:19.000Z</time></trkpt>
        <trkpt lat="28.6732479" lon="105.6550753"><ele>473.72</ele><time>2026-04-05T00:14:31.000Z</time></trkpt>
        <trkpt lat="28.6733403" lon="105.6550589"><ele>474.57</ele><time>2026-04-05T00:14:45.000Z</time></trkpt>
        <trkpt lat="28.6734308" lon="105.6550567"><ele>473.55</ele><time>2026-04-05T00:14:57.000Z</time></trkpt>
        <trkpt lat="28.6735269" lon="105.6550486"><ele>472.63</ele><time>2026-04-05T00:15:09.000Z</time></trkpt>
        <trkpt lat="28.6736189" lon="105.6550447"><ele>472.19</ele><time>2026-04-05T00:15:21.000Z</time></trkpt>
        <trkpt lat="28.6737055" lon="105.6550764"><ele>470.73</ele><time>2026-04-05T00:15:33.000Z</time></trkpt>
        <trkpt lat="28.6737901" lon="105.6551223"><ele>468.74</ele><time>2026-04-05T00:15:53.000Z</time></trkpt>
        <trkpt lat="28.6738794" lon="105.6551764"><ele>466.14</ele><time>2026-04-05T00:16:07.000Z</time></trkpt>
        <trkpt lat="28.673982" lon="105.6552067"><ele>463.46</ele><time>2026-04-05T00:16:19.000Z</time></trkpt>
        <trkpt lat="28.6740817" lon="105.655228"><ele>461.11</ele><time>2026-04-05T00:16:31.000Z</time></trkpt>
        <trkpt lat="28.6741772" lon="105.6552442"><ele>460.33</ele><time>2026-04-05T00:16:43.000Z</time></trkpt>
        <trkpt lat="28.6742834" lon="105.655248"><ele>459.59</ele><time>2026-04-05T00:16:55.000Z</time></trkpt>
        <trkpt lat="28.6743924" lon="105.6552542"><ele>459.33</ele><time>2026-04-05T00:17:07.000Z</time></trkpt>
        <trkpt lat="28.6744955" lon="105.6552924"><ele>459.36</ele><time>2026-04-05T00:17:19.000Z</time></trkpt>
        <trkpt lat="28.6745786" lon="105.6553528"><ele>459.03</ele><time>2026-04-05T00:17:29.000Z</time></trkpt>
        <trkpt lat="28.6746707" lon="105.6554047"><ele>459.23</ele><time>2026-04-05T00:17:41.000Z</time></trkpt>
        <trkpt lat="28.6747622" lon="105.6554476"><ele>459.56</ele><time>2026-04-05T00:17:53.000Z</time></trkpt>
        <trkpt lat="28.6748449" lon="105.6555031"><ele>459.54</ele><time>2026-04-05T00:18:03.000Z</time></trkpt>
        <trkpt lat="28.6749169" lon="105.6555782"><ele>459.39</ele><time>2026-04-05T00:18:13.000Z</time></trkpt>
        <trkpt lat="28.6749931" lon="105.65564"><ele>459.61</ele><time>2026-04-05T00:18:23.000Z</time></trkpt>
        <trkpt lat="28.6750766" lon="105.6557054"><ele>459.65</ele><time>2026-04-05T00:18:35.000Z</time></trkpt>
        <trkpt lat="28.6751631" lon="105.655776"><ele>459.8</ele><time>2026-04-05T00:18:47.000Z</time></trkpt>
        <trkpt lat="28.6752391" lon="105.655862"><ele>459.8</ele><time>2026-04-05T00:18:59.000Z</time></trkpt>
        <trkpt lat="28.6753085" lon="105.655952"><ele>460.27</ele><time>2026-04-05T00:19:13.000Z</time></trkpt>
        <trkpt lat="28.6753946" lon="105.6560073"><ele>460.41</ele><time>2026-04-05T00:19:25.000Z</time></trkpt>
        <trkpt lat="28.675495" lon="105.6560279"><ele>459.59</ele><time>2026-04-05T00:19:37.000Z</time></trkpt>
        <trkpt lat="28.6756012" lon="105.6560236"><ele>458.26</ele><time>2026-04-05T00:19:49.000Z</time></trkpt>
        <trkpt lat="28.6756821" lon="105.6560754"><ele>457.55</ele><time>2026-04-05T00:20:01.000Z</time></trkpt>
        <trkpt lat="28.6757053" lon="105.6561831"><ele>457.1</ele><time>2026-04-05T00:20:13.000Z</time></trkpt>
        <trkpt lat="28.6757284" lon="105.6562983"><ele>456.54</ele><time>2026-04-05T00:20:25.000Z</time></trkpt>
        <trkpt lat="28.6757651" lon="105.6564086"><ele>455.66</ele><time>2026-04-05T00:20:37.000Z</time></trkpt>
        <trkpt lat="28.6757974" lon="105.6565122"><ele>454.65</ele><time>2026-04-05T00:20:53.000Z</time></trkpt>
        <trkpt lat="28.6758346" lon="105.6566097"><ele>452.56</ele><time>2026-04-05T00:21:13.000Z</time></trkpt>
        <trkpt lat="28.6758415" lon="105.6567136"><ele>450.81</ele><time>2026-04-05T00:21:31.000Z</time></trkpt>
        <trkpt lat="28.6757997" lon="105.6568113"><ele>449.09</ele><time>2026-04-05T00:21:47.000Z</time></trkpt>
        <trkpt lat="28.6757467" lon="105.6569103"><ele>448.02</ele><time>2026-04-05T00:22:01.000Z</time></trkpt>
        <trkpt lat="28.6756906" lon="105.6570112"><ele>446.89</ele><time>2026-04-05T00:22:17.000Z</time></trkpt>
        <trkpt lat="28.6756397" lon="105.6571041"><ele>445.99</ele><time>2026-04-05T00:22:35.000Z</time></trkpt>
        <trkpt lat="28.6755671" lon="105.6571877"><ele>445.09</ele><time>2026-04-05T00:22:51.000Z</time></trkpt>
        <trkpt lat="28.6755122" lon="105.6572808"><ele>444.06</ele><time>2026-04-05T00:23:03.000Z</time></trkpt>
        <trkpt lat="28.6754689" lon="105.6573782"><ele>442.92</ele><time>2026-04-05T00:23:17.000Z</time></trkpt>
        <trkpt lat="28.6754296" lon="105.6574769"><ele>440.5</ele><time>2026-04-05T00:23:35.000Z</time></trkpt>
        <trkpt lat="28.6753949" lon="105.6575746"><ele>437.53</ele><time>2026-04-05T00:23:57.000Z</time></trkpt>
        <trkpt lat="28.6753749" lon="105.6576754"><ele>434.64</ele><time>2026-04-05T00:24:17.000Z</time></trkpt>
        <trkpt lat="28.6753861" lon="105.6577836"><ele>432</ele><time>2026-04-05T00:24:35.000Z</time></trkpt>
        <trkpt lat="28.6754339" lon="105.6578879"><ele>429.03</ele><time>2026-04-05T00:24:51.000Z</time></trkpt>
        <trkpt lat="28.6755152" lon="105.6579616"><ele>426.39</ele><time>2026-04-05T00:25:07.000Z</time></trkpt>
        <trkpt lat="28.6755868" lon="105.658039"><ele>424.63</ele><time>2026-04-05T00:25:29.000Z</time></trkpt>
        <trkpt lat="28.6755674" lon="105.6581345"><ele>422.6</ele><time>2026-04-05T00:25:41.000Z</time></trkpt>
        <trkpt lat="28.6755009" lon="105.6582272"><ele>420.83</ele><time>2026-04-05T00:25:51.000Z</time></trkpt>
        <trkpt lat="28.675404" lon="105.658287"><ele>420.22</ele><time>2026-04-05T00:26:01.000Z</time></trkpt>
        <trkpt lat="28.6753382" lon="105.6583671"><ele>420.25</ele><time>2026-04-05T00:26:11.000Z</time></trkpt>
        <trkpt lat="28.6752769" lon="105.6584588"><ele>420.27</ele><time>2026-04-05T00:26:23.000Z</time></trkpt>
        <trkpt lat="28.675234" lon="105.6585671"><ele>419.77</ele><time>2026-04-05T00:26:35.000Z</time></trkpt>
        <trkpt lat="28.6751791" lon="105.6586757"><ele>419.44</ele><time>2026-04-05T00:26:49.000Z</time></trkpt>
        <trkpt lat="28.6751289" lon="105.6587794"><ele>418.82</ele><time>2026-04-05T00:27:01.000Z</time></trkpt>
        <trkpt lat="28.6751043" lon="105.6588817"><ele>417.91</ele><time>2026-04-05T00:27:23.000Z</time></trkpt>
        <trkpt lat="28.6751038" lon="105.6589936"><ele>416.79</ele><time>2026-04-05T00:27:45.000Z</time></trkpt>
        <trkpt lat="28.6751133" lon="105.6591026"><ele>414.51</ele><time>2026-04-05T00:28:01.000Z</time></trkpt>
        <trkpt lat="28.6751392" lon="105.6592151"><ele>412.01</ele><time>2026-04-05T00:28:19.000Z</time></trkpt>
        <trkpt lat="28.6751545" lon="105.6593326"><ele>408.31</ele><time>2026-04-05T00:28:33.000Z</time></trkpt>
        <trkpt lat="28.6751678" lon="105.6594515"><ele>404.95</ele><time>2026-04-05T00:28:45.000Z</time></trkpt>
        <trkpt lat="28.6751738" lon="105.6595594"><ele>402.52</ele><time>2026-04-05T00:28:57.000Z</time></trkpt>
        <trkpt lat="28.6751808" lon="105.6596641"><ele>400.88</ele><time>2026-04-05T00:29:21.000Z</time></trkpt>
        <trkpt lat="28.6751823" lon="105.6597682"><ele>399.9</ele><time>2026-04-05T00:29:39.000Z</time></trkpt>
        <trkpt lat="28.6752094" lon="105.6598699"><ele>398.56</ele><time>2026-04-05T00:29:55.000Z</time></trkpt>
        <trkpt lat="28.6752325" lon="105.6599735"><ele>397.12</ele><time>2026-04-05T00:30:15.000Z</time></trkpt>
        <trkpt lat="28.6752479" lon="105.6600769"><ele>395.52</ele><time>2026-04-05T00:30:31.000Z</time></trkpt>
        <trkpt lat="28.6752463" lon="105.6601889"><ele>393.88</ele><time>2026-04-05T00:30:47.000Z</time></trkpt>
        <trkpt lat="28.6751923" lon="105.6602803"><ele>391.61</ele><time>2026-04-05T00:31:03.000Z</time></trkpt>
        <trkpt lat="28.675124" lon="105.6603676"><ele>390.27</ele><time>2026-04-05T00:31:15.000Z</time></trkpt>
        <trkpt lat="28.6750965" lon="105.6603777"><ele>388.82</ele><time>2026-04-05T00:31:23.000Z</time></trkpt>
        <trkpt lat="28.675089" lon="105.6604519"><ele>387.26</ele><time>2026-04-05T00:31:43.000Z</time></trkpt>
        <trkpt lat="28.6750954" lon="105.660569"><ele>385.43</ele><time>2026-04-05T00:32:23.000Z</time></trkpt>
        <trkpt lat="28.6751042" lon="105.6606858"><ele>381.16</ele><time>2026-04-05T00:32:37.000Z</time></trkpt>
        <trkpt lat="28.6751247" lon="105.6608232"><ele>377.65</ele><time>2026-04-05T00:32:49.000Z</time></trkpt>
        <trkpt lat="28.6751585" lon="105.6609492"><ele>373.84</ele><time>2026-04-05T00:33:01.000Z</time></trkpt>
        <trkpt lat="28.6752049" lon="105.6610503"><ele>370.43</ele><time>2026-04-05T00:33:13.000Z</time></trkpt>
        <trkpt lat="28.675277" lon="105.6611205"><ele>366.72</ele><time>2026-04-05T00:33:25.000Z</time></trkpt>
        <trkpt lat="28.675297" lon="105.661217"><ele>363.53</ele><time>2026-04-05T00:33:43.000Z</time></trkpt>
        <trkpt lat="28.6753472" lon="105.6612966"><ele>360.33</ele><time>2026-04-05T00:33:53.000Z</time></trkpt>
        <trkpt lat="28.6754138" lon="105.6613797"><ele>357.78</ele><time>2026-04-05T00:34:03.000Z</time></trkpt>
        <trkpt lat="28.6754607" lon="105.6614763"><ele>355.68</ele><time>2026-04-05T00:34:31.000Z</time></trkpt>
        <trkpt lat="28.6754891" lon="105.6615818"><ele>353.24</ele><time>2026-04-05T00:34:55.000Z</time></trkpt>
        <trkpt lat="28.6755486" lon="105.6616573"><ele>349.65</ele><time>2026-04-05T00:35:05.000Z</time></trkpt>
        <trkpt lat="28.6756233" lon="105.6617249"><ele>346.7</ele><time>2026-04-05T00:35:19.000Z</time></trkpt>
        <trkpt lat="28.6756924" lon="105.6618032"><ele>344.25</ele><time>2026-04-05T00:35:35.000Z</time></trkpt>
        <trkpt lat="28.6757643" lon="105.6618778"><ele>341.99</ele><time>2026-04-05T00:35:49.000Z</time></trkpt>
        <trkpt lat="28.6758294" lon="105.6619649"><ele>340.27</ele><time>2026-04-05T00:36:05.000Z</time></trkpt>
        <trkpt lat="28.6758802" lon="105.6620641"><ele>338.91</ele><time>2026-04-05T00:36:19.000Z</time></trkpt>
        <trkpt lat="28.6759274" lon="105.6621597"><ele>337.66</ele><time>2026-04-05T00:36:31.000Z</time></trkpt>
        <trkpt lat="28.6759527" lon="105.6622693"><ele>336.47</ele><time>2026-04-05T00:36:43.000Z</time></trkpt>
        <trkpt lat="28.6759657" lon="105.66238"><ele>335.32</ele><time>2026-04-05T00:36:55.000Z</time></trkpt>
        <trkpt lat="28.6759557" lon="105.6624988"><ele>334.11</ele><time>2026-04-05T00:37:07.000Z</time></trkpt>
        <trkpt lat="28.6759076" lon="105.6626051"><ele>332.99</ele><time>2026-04-05T00:37:19.000Z</time></trkpt>
        <trkpt lat="28.67584" lon="105.6627023"><ele>332.35</ele><time>2026-04-05T00:37:31.000Z</time></trkpt>
        <trkpt lat="28.6757785" lon="105.6628039"><ele>331.6</ele><time>2026-04-05T00:37:43.000Z</time></trkpt>
        <trkpt lat="28.6757107" lon="105.6628866"><ele>330.95</ele><time>2026-04-05T00:37:55.000Z</time></trkpt>
        <trkpt lat="28.675623" lon="105.6629349"><ele>329.81</ele><time>2026-04-05T00:38:09.000Z</time></trkpt>
        <trkpt lat="28.6755289" lon="105.6629479"><ele>328.69</ele><time>2026-04-05T00:38:21.000Z</time></trkpt>
        <trkpt lat="28.6754341" lon="105.6629693"><ele>327.4</ele><time>2026-04-05T00:38:33.000Z</time></trkpt>
        <trkpt lat="28.6753402" lon="105.6629894"><ele>326.2</ele><time>2026-04-05T00:38:45.000Z</time></trkpt>
        <trkpt lat="28.6752623" lon="105.6630555"><ele>325.51</ele><time>2026-04-05T00:38:59.000Z</time></trkpt>
        <trkpt lat="28.6752019" lon="105.6631516"><ele>324.56</ele><time>2026-04-05T00:39:13.000Z</time></trkpt>
        <trkpt lat="28.675161" lon="105.6632603"><ele>323.5</ele><time>2026-04-05T00:39:29.000Z</time></trkpt>
        <trkpt lat="28.6751345" lon="105.6633695"><ele>322.21</ele><time>2026-04-05T00:39:45.000Z</time></trkpt>
        <trkpt lat="28.6751078" lon="105.6634794"><ele>320.66</ele><time>2026-04-05T00:40:03.000Z</time></trkpt>
        <trkpt lat="28.6750794" lon="105.6635882"><ele>318.7</ele><time>2026-04-05T00:40:21.000Z</time></trkpt>
        <trkpt lat="28.675028" lon="105.6636835"><ele>316.68</ele><time>2026-04-05T00:40:39.000Z</time></trkpt>
        <trkpt lat="28.6749704" lon="105.6637686"><ele>314.66</ele><time>2026-04-05T00:40:55.000Z</time></trkpt>
        <trkpt lat="28.6749179" lon="105.663853"><ele>312.79</ele><time>2026-04-05T00:41:09.000Z</time></trkpt>
        <trkpt lat="28.6748831" lon="105.6639493"><ele>311.07</ele><time>2026-04-05T00:41:23.000Z</time></trkpt>
        <trkpt lat="28.6748625" lon="105.6640567"><ele>309.32</ele><time>2026-04-05T00:41:37.000Z</time></trkpt>
        <trkpt lat="28.67485" lon="105.6641628"><ele>307.68</ele><time>2026-04-05T00:41:51.000Z</time></trkpt>
        <trkpt lat="28.6748455" lon="105.6642776"><ele>306.14</ele><time>2026-04-05T00:42:09.000Z</time></trkpt>
        <trkpt lat="28.6748553" lon="105.6643852"><ele>304.06</ele><time>2026-04-05T00:42:23.000Z</time></trkpt>
        <trkpt lat="28.6748606" lon="105.6644946"><ele>301.84</ele><time>2026-04-05T00:42:37.000Z</time></trkpt>
        <trkpt lat="28.6748616" lon="105.6645995"><ele>299.76</ele><time>2026-04-05T00:42:51.000Z</time></trkpt>
        <trkpt lat="28.6748544" lon="105.6647079"><ele>297.41</ele><time>2026-04-05T00:43:05.000Z</time></trkpt>
        <trkpt lat="28.6748403" lon="105.6648164"><ele>294.87</ele><time>2026-04-05T00:43:19.000Z</time></trkpt>
        <trkpt lat="28.6748293" lon="105.6649236"><ele>292.04</ele><time>2026-04-05T00:43:33.000Z</time></trkpt>
        <trkpt lat="28.6748149" lon="105.6650303"><ele>289.4</ele><time>2026-04-05T00:43:47.000Z</time></trkpt>
        <trkpt lat="28.6748146" lon="105.6651456"><ele>286.86</ele><time>2026-04-05T00:44:01.000Z</time></trkpt>
        <trkpt lat="28.6748008" lon="105.6652567"><ele>284.51</ele><time>2026-04-05T00:44:13.000Z</time></trkpt>
        <trkpt lat="28.6747577" lon="105.6653594"><ele>281.93</ele><time>2026-04-05T00:44:23.000Z</time></trkpt>
        <trkpt lat="28.674693" lon="105.6654504"><ele>279.64</ele><time>2026-04-05T00:44:33.000Z</time></trkpt>
        <trkpt lat="28.6746535" lon="105.66556"><ele>277.86</ele><time>2026-04-05T00:44:47.000Z</time></trkpt>
        <trkpt lat="28.6746643" lon="105.6656686"><ele>276.41</ele><time>2026-04-05T00:44:57.000Z</time></trkpt>
        <trkpt lat="28.6747182" lon="105.6657637"><ele>275.42</ele><time>2026-04-05T00:45:07.000Z</time></trkpt>
        <trkpt lat="28.6747699" lon="105.6658599"><ele>274.46</ele><time>2026-04-05T00:45:17.000Z</time></trkpt>
        <trkpt lat="28.6747994" lon="105.665971"><ele>273.58</ele><time>2026-04-05T00:45:29.000Z</time></trkpt>
        <trkpt lat="28.6747914" lon="105.6660864"><ele>272.34</ele><time>2026-04-05T00:45:41.000Z</time></trkpt>
        <trkpt lat="28.674781" lon="105.6661953"><ele>270.99</ele><time>2026-04-05T00:45:53.000Z</time></trkpt>
        <trkpt lat="28.674812" lon="105.6663049"><ele>269.96</ele><time>2026-04-05T00:46:05.000Z</time></trkpt>
        <trkpt lat="28.6748808" lon="105.6663898"><ele>269.33</ele><time>2026-04-05T00:46:15.000Z</time></trkpt>
        <trkpt lat="28.6749491" lon="105.6664757"><ele>268.85</ele><time>2026-04-05T00:46:25.000Z</time></trkpt>
        <trkpt lat="28.675017" lon="105.6665582"><ele>268.48</ele><time>2026-04-05T00:46:37.000Z</time></trkpt>
        <trkpt lat="28.6750668" lon="105.666664"><ele>268.1</ele><time>2026-04-05T00:46:47.000Z</time></trkpt>
        <trkpt lat="28.6750529" lon="105.6667738"><ele>267.59</ele><time>2026-04-05T00:46:57.000Z</time></trkpt>
        <trkpt lat="28.6750026" lon="105.6668228"><ele>267.46</ele><time>2026-04-05T00:47:09.000Z</time></trkpt>
        <trkpt lat="28.6749878" lon="105.6669188"><ele>267.61</ele><time>2026-04-05T00:47:23.000Z</time></trkpt>
        <trkpt lat="28.6749612" lon="105.6670338"><ele>267.52</ele><time>2026-04-05T00:47:33.000Z</time></trkpt>
        <trkpt lat="28.6749492" lon="105.6671584"><ele>267.25</ele><time>2026-04-05T00:47:43.000Z</time></trkpt>
        <trkpt lat="28.6749421" lon="105.6672875"><ele>266.97</ele><time>2026-04-05T00:47:53.000Z</time></trkpt>
        <trkpt lat="28.6749288" lon="105.6674068"><ele>266.68</ele><time>2026-04-05T00:48:03.000Z</time></trkpt>
        <trkpt lat="28.6749041" lon="105.6675166"><ele>266.52</ele><time>2026-04-05T00:48:13.000Z</time></trkpt>
        <trkpt lat="28.674884" lon="105.6676291"><ele>266.21</ele><time>2026-04-05T00:48:23.000Z</time></trkpt>
        <trkpt lat="28.6749138" lon="105.667742"><ele>266.38</ele><time>2026-04-05T00:48:43.000Z</time></trkpt>
        <trkpt lat="28.6749758" lon="105.6678438"><ele>266.99</ele><time>2026-04-05T00:48:53.000Z</time></trkpt>
        <trkpt lat="28.675038" lon="105.6679442"><ele>267.25</ele><time>2026-04-05T00:49:03.000Z</time></trkpt>
        <trkpt lat="28.675096" lon="105.6680496"><ele>267.44</ele><time>2026-04-05T00:49:13.000Z</time></trkpt>
        <trkpt lat="28.6751556" lon="105.6681461"><ele>267.73</ele><time>2026-04-05T00:49:23.000Z</time></trkpt>
        <trkpt lat="28.6752102" lon="105.6682393"><ele>267.8</ele><time>2026-04-05T00:49:33.000Z</time></trkpt>
        <trkpt lat="28.6752575" lon="105.6683391"><ele>267.97</ele><time>2026-04-05T00:49:43.000Z</time></trkpt>
        <trkpt lat="28.6752897" lon="105.6684507"><ele>268.5</ele><time>2026-04-05T00:49:53.000Z</time></trkpt>
        <trkpt lat="28.6753042" lon="105.6685689"><ele>269.15</ele><time>2026-04-05T00:50:03.000Z</time></trkpt>
        <trkpt lat="28.6753046" lon="105.6686875"><ele>269.38</ele><time>2026-04-05T00:50:13.000Z</time></trkpt>
        <trkpt lat="28.6753101" lon="105.668803"><ele>269.52</ele><time>2026-04-05T00:50:23.000Z</time></trkpt>
        <trkpt lat="28.6753165" lon="105.6689233"><ele>269.47</ele><time>2026-04-05T00:50:33.000Z</time></trkpt>
        <trkpt lat="28.6753288" lon="105.6690452"><ele>269.7</ele><time>2026-04-05T00:50:43.000Z</time></trkpt>
        <trkpt lat="28.6753574" lon="105.6691649"><ele>270.3</ele><time>2026-04-05T00:50:53.000Z</time></trkpt>
        <trkpt lat="28.6754066" lon="105.6692749"><ele>271.03</ele><time>2026-04-05T00:51:03.000Z</time></trkpt>
        <trkpt lat="28.6754825" lon="105.6693599"><ele>271.49</ele><time>2026-04-05T00:51:13.000Z</time></trkpt>
        <trkpt lat="28.6755414" lon="105.669444"><ele>271.88</ele><time>2026-04-05T00:51:21.000Z</time></trkpt>
        <trkpt lat="28.6756043" lon="105.669538"><ele>272.19</ele><time>2026-04-05T00:51:31.000Z</time></trkpt>
        <trkpt lat="28.6756747" lon="105.6696279"><ele>272.54</ele><time>2026-04-05T00:51:41.000Z</time></trkpt>
        <trkpt lat="28.6757348" lon="105.6697224"><ele>272.78</ele><time>2026-04-05T00:51:51.000Z</time></trkpt>
        <trkpt lat="28.6757893" lon="105.6698264"><ele>272.66</ele><time>2026-04-05T00:52:01.000Z</time></trkpt>
        <trkpt lat="28.675862" lon="105.6699024"><ele>273.15</ele><time>2026-04-05T00:52:11.000Z</time></trkpt>
        <trkpt lat="28.6759368" lon="105.6699662"><ele>273.77</ele><time>2026-04-05T00:52:19.000Z</time></trkpt>
        <trkpt lat="28.6760142" lon="105.6700207"><ele>273.35</ele><time>2026-04-05T00:52:27.000Z</time></trkpt>
        <trkpt lat="28.6760631" lon="105.6700116"><ele>271.78</ele><time>2026-04-05T00:52:39.000Z</time></trkpt>
        <trkpt lat="28.6759973" lon="105.6700431"><ele>271.14</ele><time>2026-04-05T00:53:09.000Z</time></trkpt>
        <trkpt lat="28.6759084" lon="105.6700936"><ele>270.09</ele><time>2026-04-05T00:53:19.000Z</time></trkpt>
        <trkpt lat="28.6759084" lon="105.6700936"><ele>270.09</ele><time>2026-04-05T00:53:25.000Z</time></trkpt>
      </trkseg>
  </trk>
</gpx>